<?xml version="1.0" encoding="UTF-8" standalone="no" ?>
<gpx xmlns="http://www.topografix.com/GPX/1/1" xmlns:xsi="http://www.w3.org/2001/XMLSchema-instance" xsi:schemaLocation="http://www.topografix.com/GPX/1/1 http://www.topografix.com/GPX/1/1/gpx.xsd" version="1.1" creator="VisuGPX - https://www.visugpx.com">
  <metadata>
    <name>83 - Fox Amphoux ND du bon secours</name>
    <desc><![CDATA[Circuit de 9 km avec 150m de dénivelé.
Village médiéval (ancien castrum médiéval)]]></desc>
  </metadata>
  <trk>
    <name><![CDATA[15-FEV-16 13:23:46]]></name>
    <trkseg>
      <trkpt lat="43.5851" lon="6.10347">
        <ele>508.67</ele>
        <time>2016-02-15T09:51:46Z</time>
      </trkpt>
      <trkpt lat="43.58506" lon="6.1035">
        <ele>511.08</ele>
        <time>2016-02-15T09:51:53Z</time>
      </trkpt>
      <trkpt lat="43.58506" lon="6.10349">
        <ele>507.71</ele>
        <time>2016-02-15T09:52:15Z</time>
      </trkpt>
      <trkpt lat="43.58515" lon="6.10349">
        <ele>506.75</ele>
        <time>2016-02-15T09:52:28Z</time>
      </trkpt>
      <trkpt lat="43.58523" lon="6.10347">
        <ele>507.71</ele>
        <time>2016-02-15T09:52:45Z</time>
      </trkpt>
      <trkpt lat="43.58544" lon="6.10338">
        <ele>508.67</ele>
        <time>2016-02-15T09:53:05Z</time>
      </trkpt>
      <trkpt lat="43.58564" lon="6.10329">
        <ele>509.16</ele>
        <time>2016-02-15T09:53:25Z</time>
      </trkpt>
      <trkpt lat="43.58565" lon="6.10329">
        <ele>509.16</ele>
        <time>2016-02-15T09:53:26Z</time>
      </trkpt>
      <trkpt lat="43.58583" lon="6.1032">
        <ele>507.71</ele>
        <time>2016-02-15T09:53:45Z</time>
      </trkpt>
      <trkpt lat="43.58592" lon="6.10311">
        <ele>508.67</ele>
        <time>2016-02-15T09:54:06Z</time>
      </trkpt>
      <trkpt lat="43.58602" lon="6.10302">
        <ele>510.12</ele>
        <time>2016-02-15T09:54:24Z</time>
      </trkpt>
      <trkpt lat="43.58611" lon="6.10288">
        <ele>511.56</ele>
        <time>2016-02-15T09:54:43Z</time>
      </trkpt>
      <trkpt lat="43.58603" lon="6.10283">
        <ele>512.04</ele>
        <time>2016-02-15T09:54:55Z</time>
      </trkpt>
      <trkpt lat="43.58591" lon="6.10276">
        <ele>516.85</ele>
        <time>2016-02-15T09:55:07Z</time>
      </trkpt>
      <trkpt lat="43.58584" lon="6.1027">
        <ele>517.33</ele>
        <time>2016-02-15T09:55:14Z</time>
      </trkpt>
      <trkpt lat="43.5858" lon="6.10263">
        <ele>517.33</ele>
        <time>2016-02-15T09:55:22Z</time>
      </trkpt>
      <trkpt lat="43.58575" lon="6.10257">
        <ele>516.85</ele>
        <time>2016-02-15T09:55:28Z</time>
      </trkpt>
      <trkpt lat="43.58569" lon="6.10248">
        <ele>518.29</ele>
        <time>2016-02-15T09:55:38Z</time>
      </trkpt>
      <trkpt lat="43.58563" lon="6.10233">
        <ele>519.73</ele>
        <time>2016-02-15T09:55:50Z</time>
      </trkpt>
      <trkpt lat="43.58561" lon="6.10219">
        <ele>521.17</ele>
        <time>2016-02-15T09:56:00Z</time>
      </trkpt>
      <trkpt lat="43.58562" lon="6.10202">
        <ele>523.09</ele>
        <time>2016-02-15T09:56:13Z</time>
      </trkpt>
      <trkpt lat="43.58571" lon="6.10172">
        <ele>524.06</ele>
        <time>2016-02-15T09:56:33Z</time>
      </trkpt>
      <trkpt lat="43.58579" lon="6.10155">
        <ele>524.54</ele>
        <time>2016-02-15T09:56:48Z</time>
      </trkpt>
      <trkpt lat="43.58581" lon="6.10154">
        <ele>525.5</ele>
        <time>2016-02-15T09:56:50Z</time>
      </trkpt>
      <trkpt lat="43.58589" lon="6.10143">
        <ele>526.94</ele>
        <time>2016-02-15T09:57:02Z</time>
      </trkpt>
      <trkpt lat="43.58594" lon="6.10143">
        <ele>527.9</ele>
        <time>2016-02-15T09:57:17Z</time>
      </trkpt>
      <trkpt lat="43.58595" lon="6.10142">
        <ele>528.86</ele>
        <time>2016-02-15T09:57:41Z</time>
      </trkpt>
      <trkpt lat="43.586" lon="6.1014">
        <ele>529.34</ele>
        <time>2016-02-15T09:57:55Z</time>
      </trkpt>
      <trkpt lat="43.586" lon="6.10141">
        <ele>529.82</ele>
        <time>2016-02-15T09:58:05Z</time>
      </trkpt>
      <trkpt lat="43.58614" lon="6.10138">
        <ele>530.3</ele>
        <time>2016-02-15T09:58:20Z</time>
      </trkpt>
      <trkpt lat="43.58616" lon="6.10136">
        <ele>530.79</ele>
        <time>2016-02-15T09:58:23Z</time>
      </trkpt>
      <trkpt lat="43.58617" lon="6.10131">
        <ele>530.79</ele>
        <time>2016-02-15T09:58:27Z</time>
      </trkpt>
      <trkpt lat="43.58615" lon="6.10124">
        <ele>530.79</ele>
        <time>2016-02-15T09:58:34Z</time>
      </trkpt>
      <trkpt lat="43.58617" lon="6.10118">
        <ele>530.79</ele>
        <time>2016-02-15T09:58:44Z</time>
      </trkpt>
      <trkpt lat="43.58622" lon="6.10115">
        <ele>529.82</ele>
        <time>2016-02-15T09:58:58Z</time>
      </trkpt>
      <trkpt lat="43.58633" lon="6.10101">
        <ele>527.42</ele>
        <time>2016-02-15T09:59:15Z</time>
      </trkpt>
      <trkpt lat="43.58642" lon="6.10092">
        <ele>526.46</ele>
        <time>2016-02-15T09:59:27Z</time>
      </trkpt>
      <trkpt lat="43.58659" lon="6.10087">
        <ele>525.98</ele>
        <time>2016-02-15T09:59:44Z</time>
      </trkpt>
      <trkpt lat="43.58667" lon="6.10086">
        <ele>525.02</ele>
        <time>2016-02-15T09:59:54Z</time>
      </trkpt>
      <trkpt lat="43.58676" lon="6.10081">
        <ele>525.02</ele>
        <time>2016-02-15T10:00:07Z</time>
      </trkpt>
      <trkpt lat="43.58677" lon="6.10081">
        <ele>525.02</ele>
        <time>2016-02-15T10:00:08Z</time>
      </trkpt>
      <trkpt lat="43.58692" lon="6.10073">
        <ele>524.54</ele>
        <time>2016-02-15T10:00:23Z</time>
      </trkpt>
      <trkpt lat="43.58705" lon="6.1007">
        <ele>524.54</ele>
        <time>2016-02-15T10:00:36Z</time>
      </trkpt>
      <trkpt lat="43.58716" lon="6.10066">
        <ele>522.13</ele>
        <time>2016-02-15T10:00:48Z</time>
      </trkpt>
      <trkpt lat="43.58725" lon="6.10066">
        <ele>517.81</ele>
        <time>2016-02-15T10:00:59Z</time>
      </trkpt>
      <trkpt lat="43.58734" lon="6.10066">
        <ele>515.88</ele>
        <time>2016-02-15T10:01:10Z</time>
      </trkpt>
      <trkpt lat="43.5874" lon="6.10068">
        <ele>513.48</ele>
        <time>2016-02-15T10:01:18Z</time>
      </trkpt>
      <trkpt lat="43.58744" lon="6.10068">
        <ele>510.12</ele>
        <time>2016-02-15T10:01:30Z</time>
      </trkpt>
      <trkpt lat="43.58744" lon="6.10065">
        <ele>509.16</ele>
        <time>2016-02-15T10:01:33Z</time>
      </trkpt>
      <trkpt lat="43.5874" lon="6.10054">
        <ele>502.43</ele>
        <time>2016-02-15T10:01:45Z</time>
      </trkpt>
      <trkpt lat="43.58741" lon="6.10051">
        <ele>501.46</ele>
        <time>2016-02-15T10:01:48Z</time>
      </trkpt>
      <trkpt lat="43.5875" lon="6.10052">
        <ele>499.06</ele>
        <time>2016-02-15T10:01:59Z</time>
      </trkpt>
      <trkpt lat="43.58758" lon="6.10057">
        <ele>496.66</ele>
        <time>2016-02-15T10:02:11Z</time>
      </trkpt>
      <trkpt lat="43.5876" lon="6.10056">
        <ele>495.7</ele>
        <time>2016-02-15T10:02:13Z</time>
      </trkpt>
      <trkpt lat="43.58762" lon="6.10054">
        <ele>494.26</ele>
        <time>2016-02-15T10:02:19Z</time>
      </trkpt>
      <trkpt lat="43.58758" lon="6.1005">
        <ele>492.33</ele>
        <time>2016-02-15T10:02:25Z</time>
      </trkpt>
      <trkpt lat="43.58755" lon="6.10044">
        <ele>491.37</ele>
        <time>2016-02-15T10:02:31Z</time>
      </trkpt>
      <trkpt lat="43.5875" lon="6.10039">
        <ele>489.93</ele>
        <time>2016-02-15T10:02:38Z</time>
      </trkpt>
      <trkpt lat="43.58748" lon="6.10035">
        <ele>489.45</ele>
        <time>2016-02-15T10:02:42Z</time>
      </trkpt>
      <trkpt lat="43.58757" lon="6.10035">
        <ele>488.01</ele>
        <time>2016-02-15T10:02:57Z</time>
      </trkpt>
      <trkpt lat="43.58765" lon="6.10043">
        <ele>487.05</ele>
        <time>2016-02-15T10:03:10Z</time>
      </trkpt>
      <trkpt lat="43.58775" lon="6.10048">
        <ele>485.6</ele>
        <time>2016-02-15T10:03:25Z</time>
      </trkpt>
      <trkpt lat="43.58775" lon="6.10048">
        <ele>485.6</ele>
        <time>2016-02-15T10:03:26Z</time>
      </trkpt>
      <trkpt lat="43.58772" lon="6.10039">
        <ele>482.72</ele>
        <time>2016-02-15T10:03:43Z</time>
      </trkpt>
      <trkpt lat="43.58771" lon="6.10038">
        <ele>482.24</ele>
        <time>2016-02-15T10:03:44Z</time>
      </trkpt>
      <trkpt lat="43.58768" lon="6.10032">
        <ele>480.8</ele>
        <time>2016-02-15T10:03:56Z</time>
      </trkpt>
      <trkpt lat="43.58768" lon="6.10029">
        <ele>479.84</ele>
        <time>2016-02-15T10:04:13Z</time>
      </trkpt>
      <trkpt lat="43.58777" lon="6.10031">
        <ele>479.84</ele>
        <time>2016-02-15T10:04:28Z</time>
      </trkpt>
      <trkpt lat="43.58782" lon="6.10035">
        <ele>479.84</ele>
        <time>2016-02-15T10:04:38Z</time>
      </trkpt>
      <trkpt lat="43.58791" lon="6.10039">
        <ele>478.39</ele>
        <time>2016-02-15T10:04:49Z</time>
      </trkpt>
      <trkpt lat="43.58804" lon="6.10049">
        <ele>476.47</ele>
        <time>2016-02-15T10:05:03Z</time>
      </trkpt>
      <trkpt lat="43.58805" lon="6.1005">
        <ele>475.99</ele>
        <time>2016-02-15T10:05:07Z</time>
      </trkpt>
      <trkpt lat="43.58816" lon="6.10057">
        <ele>473.59</ele>
        <time>2016-02-15T10:05:21Z</time>
      </trkpt>
      <trkpt lat="43.58818" lon="6.10058">
        <ele>474.07</ele>
        <time>2016-02-15T10:05:23Z</time>
      </trkpt>
      <trkpt lat="43.58832" lon="6.10063">
        <ele>472.63</ele>
        <time>2016-02-15T10:05:38Z</time>
      </trkpt>
      <trkpt lat="43.58836" lon="6.10069">
        <ele>470.7</ele>
        <time>2016-02-15T10:05:53Z</time>
      </trkpt>
      <trkpt lat="43.58838" lon="6.10076">
        <ele>469.26</ele>
        <time>2016-02-15T10:06:07Z</time>
      </trkpt>
      <trkpt lat="43.58843" lon="6.10081">
        <ele>468.3</ele>
        <time>2016-02-15T10:06:14Z</time>
      </trkpt>
      <trkpt lat="43.58844" lon="6.10086">
        <ele>468.3</ele>
        <time>2016-02-15T10:06:18Z</time>
      </trkpt>
      <trkpt lat="43.5885" lon="6.10109">
        <ele>470.22</ele>
        <time>2016-02-15T10:06:33Z</time>
      </trkpt>
      <trkpt lat="43.58853" lon="6.10112">
        <ele>471.18</ele>
        <time>2016-02-15T10:06:39Z</time>
      </trkpt>
      <trkpt lat="43.58859" lon="6.10126">
        <ele>474.07</ele>
        <time>2016-02-15T10:06:53Z</time>
      </trkpt>
      <trkpt lat="43.58864" lon="6.10139">
        <ele>474.07</ele>
        <time>2016-02-15T10:07:09Z</time>
      </trkpt>
      <trkpt lat="43.58865" lon="6.10142">
        <ele>473.59</ele>
        <time>2016-02-15T10:07:12Z</time>
      </trkpt>
      <trkpt lat="43.58872" lon="6.10157">
        <ele>471.18</ele>
        <time>2016-02-15T10:07:29Z</time>
      </trkpt>
      <trkpt lat="43.5888" lon="6.10157">
        <ele>470.7</ele>
        <time>2016-02-15T10:07:47Z</time>
      </trkpt>
      <trkpt lat="43.58876" lon="6.10163">
        <ele>472.63</ele>
        <time>2016-02-15T10:08:06Z</time>
      </trkpt>
      <trkpt lat="43.5888" lon="6.10165">
        <ele>473.59</ele>
        <time>2016-02-15T10:08:15Z</time>
      </trkpt>
      <trkpt lat="43.5889" lon="6.10167">
        <ele>478.39</ele>
        <time>2016-02-15T10:08:40Z</time>
      </trkpt>
      <trkpt lat="43.58872" lon="6.10164">
        <ele>476.95</ele>
        <time>2016-02-15T10:09:00Z</time>
      </trkpt>
      <trkpt lat="43.58877" lon="6.10159">
        <ele>474.07</ele>
        <time>2016-02-15T10:09:13Z</time>
      </trkpt>
      <trkpt lat="43.58878" lon="6.10161">
        <ele>471.66</ele>
        <time>2016-02-15T10:09:37Z</time>
      </trkpt>
      <trkpt lat="43.58878" lon="6.10161">
        <ele>470.7</ele>
        <time>2016-02-15T10:10:01Z</time>
      </trkpt>
      <trkpt lat="43.5888" lon="6.10165">
        <ele>470.22</ele>
        <time>2016-02-15T10:10:18Z</time>
      </trkpt>
      <trkpt lat="43.58883" lon="6.10173">
        <ele>470.7</ele>
        <time>2016-02-15T10:10:32Z</time>
      </trkpt>
      <trkpt lat="43.5889" lon="6.10184">
        <ele>469.26</ele>
        <time>2016-02-15T10:10:48Z</time>
      </trkpt>
      <trkpt lat="43.58895" lon="6.10188">
        <ele>467.82</ele>
        <time>2016-02-15T10:11:01Z</time>
      </trkpt>
      <trkpt lat="43.58898" lon="6.10186">
        <ele>467.34</ele>
        <time>2016-02-15T10:11:16Z</time>
      </trkpt>
      <trkpt lat="43.58893" lon="6.10186">
        <ele>466.38</ele>
        <time>2016-02-15T10:11:30Z</time>
      </trkpt>
      <trkpt lat="43.5889" lon="6.10184">
        <ele>466.86</ele>
        <time>2016-02-15T10:11:35Z</time>
      </trkpt>
      <trkpt lat="43.58882" lon="6.10172">
        <ele>468.78</ele>
        <time>2016-02-15T10:11:50Z</time>
      </trkpt>
      <trkpt lat="43.58881" lon="6.10173">
        <ele>469.74</ele>
        <time>2016-02-15T10:11:54Z</time>
      </trkpt>
      <trkpt lat="43.58882" lon="6.10181">
        <ele>470.22</ele>
        <time>2016-02-15T10:12:10Z</time>
      </trkpt>
      <trkpt lat="43.58882" lon="6.10181">
        <ele>470.7</ele>
        <time>2016-02-15T10:12:30Z</time>
      </trkpt>
      <trkpt lat="43.58881" lon="6.10197">
        <ele>473.11</ele>
        <time>2016-02-15T10:12:49Z</time>
      </trkpt>
      <trkpt lat="43.5888" lon="6.1021">
        <ele>476.47</ele>
        <time>2016-02-15T10:13:05Z</time>
      </trkpt>
      <trkpt lat="43.58879" lon="6.10213">
        <ele>477.43</ele>
        <time>2016-02-15T10:13:34Z</time>
      </trkpt>
      <trkpt lat="43.58875" lon="6.10233">
        <ele>479.84</ele>
        <time>2016-02-15T10:13:55Z</time>
      </trkpt>
      <trkpt lat="43.58871" lon="6.10255">
        <ele>481.76</ele>
        <time>2016-02-15T10:14:15Z</time>
      </trkpt>
      <trkpt lat="43.58871" lon="6.10271">
        <ele>485.12</ele>
        <time>2016-02-15T10:14:34Z</time>
      </trkpt>
      <trkpt lat="43.58865" lon="6.10283">
        <ele>486.56</ele>
        <time>2016-02-15T10:14:53Z</time>
      </trkpt>
      <trkpt lat="43.58861" lon="6.10294">
        <ele>489.93</ele>
        <time>2016-02-15T10:15:11Z</time>
      </trkpt>
      <trkpt lat="43.58861" lon="6.10303">
        <ele>490.41</ele>
        <time>2016-02-15T10:15:28Z</time>
      </trkpt>
      <trkpt lat="43.58863" lon="6.1032">
        <ele>490.89</ele>
        <time>2016-02-15T10:15:43Z</time>
      </trkpt>
      <trkpt lat="43.58867" lon="6.10328">
        <ele>489.45</ele>
        <time>2016-02-15T10:15:55Z</time>
      </trkpt>
      <trkpt lat="43.58869" lon="6.10347">
        <ele>484.16</ele>
        <time>2016-02-15T10:16:10Z</time>
      </trkpt>
      <trkpt lat="43.5887" lon="6.10363">
        <ele>482.24</ele>
        <time>2016-02-15T10:16:25Z</time>
      </trkpt>
      <trkpt lat="43.58875" lon="6.1038">
        <ele>479.84</ele>
        <time>2016-02-15T10:16:41Z</time>
      </trkpt>
      <trkpt lat="43.58878" lon="6.10389">
        <ele>477.43</ele>
        <time>2016-02-15T10:16:58Z</time>
      </trkpt>
      <trkpt lat="43.58882" lon="6.10396">
        <ele>475.03</ele>
        <time>2016-02-15T10:17:15Z</time>
      </trkpt>
      <trkpt lat="43.58891" lon="6.10411">
        <ele>472.63</ele>
        <time>2016-02-15T10:17:33Z</time>
      </trkpt>
      <trkpt lat="43.58892" lon="6.10418">
        <ele>471.66</ele>
        <time>2016-02-15T10:17:47Z</time>
      </trkpt>
      <trkpt lat="43.58897" lon="6.10421">
        <ele>470.22</ele>
        <time>2016-02-15T10:17:56Z</time>
      </trkpt>
      <trkpt lat="43.58901" lon="6.10417">
        <ele>469.26</ele>
        <time>2016-02-15T10:18:09Z</time>
      </trkpt>
      <trkpt lat="43.58899" lon="6.10407">
        <ele>468.78</ele>
        <time>2016-02-15T10:18:24Z</time>
      </trkpt>
      <trkpt lat="43.58899" lon="6.1039">
        <ele>468.3</ele>
        <time>2016-02-15T10:18:39Z</time>
      </trkpt>
      <trkpt lat="43.58897" lon="6.10374">
        <ele>467.34</ele>
        <time>2016-02-15T10:18:55Z</time>
      </trkpt>
      <trkpt lat="43.58901" lon="6.10363">
        <ele>463.97</ele>
        <time>2016-02-15T10:19:12Z</time>
      </trkpt>
      <trkpt lat="43.58912" lon="6.10364">
        <ele>462.05</ele>
        <time>2016-02-15T10:19:27Z</time>
      </trkpt>
      <trkpt lat="43.5892" lon="6.10365">
        <ele>460.61</ele>
        <time>2016-02-15T10:19:42Z</time>
      </trkpt>
      <trkpt lat="43.58934" lon="6.1037">
        <ele>458.21</ele>
        <time>2016-02-15T10:20:00Z</time>
      </trkpt>
      <trkpt lat="43.58943" lon="6.10371">
        <ele>455.8</ele>
        <time>2016-02-15T10:20:17Z</time>
      </trkpt>
      <trkpt lat="43.58943" lon="6.10371">
        <ele>455.32</ele>
        <time>2016-02-15T10:20:20Z</time>
      </trkpt>
      <trkpt lat="43.58952" lon="6.10377">
        <ele>451.48</ele>
        <time>2016-02-15T10:20:32Z</time>
      </trkpt>
      <trkpt lat="43.58956" lon="6.10384">
        <ele>451.96</ele>
        <time>2016-02-15T10:20:42Z</time>
      </trkpt>
      <trkpt lat="43.58967" lon="6.10392">
        <ele>451.96</ele>
        <time>2016-02-15T10:20:56Z</time>
      </trkpt>
      <trkpt lat="43.58973" lon="6.10398">
        <ele>451.96</ele>
        <time>2016-02-15T10:21:03Z</time>
      </trkpt>
      <trkpt lat="43.58978" lon="6.1041">
        <ele>450.03</ele>
        <time>2016-02-15T10:21:11Z</time>
      </trkpt>
      <trkpt lat="43.58985" lon="6.1042">
        <ele>449.55</ele>
        <time>2016-02-15T10:21:25Z</time>
      </trkpt>
      <trkpt lat="43.5899" lon="6.10434">
        <ele>447.15</ele>
        <time>2016-02-15T10:21:38Z</time>
      </trkpt>
      <trkpt lat="43.58992" lon="6.10437">
        <ele>446.67</ele>
        <time>2016-02-15T10:21:41Z</time>
      </trkpt>
      <trkpt lat="43.59" lon="6.10457">
        <ele>444.27</ele>
        <time>2016-02-15T10:21:57Z</time>
      </trkpt>
      <trkpt lat="43.59004" lon="6.10474">
        <ele>444.27</ele>
        <time>2016-02-15T10:22:11Z</time>
      </trkpt>
      <trkpt lat="43.59006" lon="6.10494">
        <ele>442.34</ele>
        <time>2016-02-15T10:22:26Z</time>
      </trkpt>
      <trkpt lat="43.59008" lon="6.10507">
        <ele>441.86</ele>
        <time>2016-02-15T10:22:43Z</time>
      </trkpt>
      <trkpt lat="43.59008" lon="6.1052">
        <ele>440.9</ele>
        <time>2016-02-15T10:22:59Z</time>
      </trkpt>
      <trkpt lat="43.59004" lon="6.10541">
        <ele>439.94</ele>
        <time>2016-02-15T10:23:15Z</time>
      </trkpt>
      <trkpt lat="43.59002" lon="6.10564">
        <ele>438.98</ele>
        <time>2016-02-15T10:23:31Z</time>
      </trkpt>
      <trkpt lat="43.59004" lon="6.10577">
        <ele>438.02</ele>
        <time>2016-02-15T10:23:39Z</time>
      </trkpt>
      <trkpt lat="43.59011" lon="6.10596">
        <ele>436.1</ele>
        <time>2016-02-15T10:23:52Z</time>
      </trkpt>
      <trkpt lat="43.59011" lon="6.10605">
        <ele>436.1</ele>
        <time>2016-02-15T10:24:07Z</time>
      </trkpt>
      <trkpt lat="43.59023" lon="6.10603">
        <ele>434.65</ele>
        <time>2016-02-15T10:24:22Z</time>
      </trkpt>
      <trkpt lat="43.59035" lon="6.1061">
        <ele>432.25</ele>
        <time>2016-02-15T10:24:38Z</time>
      </trkpt>
      <trkpt lat="43.59049" lon="6.10622">
        <ele>431.29</ele>
        <time>2016-02-15T10:24:53Z</time>
      </trkpt>
      <trkpt lat="43.59062" lon="6.10631">
        <ele>428.89</ele>
        <time>2016-02-15T10:25:05Z</time>
      </trkpt>
      <trkpt lat="43.59074" lon="6.10644">
        <ele>429.85</ele>
        <time>2016-02-15T10:25:21Z</time>
      </trkpt>
      <trkpt lat="43.59082" lon="6.10647">
        <ele>429.37</ele>
        <time>2016-02-15T10:25:29Z</time>
      </trkpt>
      <trkpt lat="43.591" lon="6.10657">
        <ele>428.89</ele>
        <time>2016-02-15T10:25:45Z</time>
      </trkpt>
      <trkpt lat="43.59117" lon="6.1067">
        <ele>427.92</ele>
        <time>2016-02-15T10:26:05Z</time>
      </trkpt>
      <trkpt lat="43.59132" lon="6.1068">
        <ele>425.04</ele>
        <time>2016-02-15T10:26:21Z</time>
      </trkpt>
      <trkpt lat="43.59144" lon="6.10678">
        <ele>424.08</ele>
        <time>2016-02-15T10:26:36Z</time>
      </trkpt>
      <trkpt lat="43.59154" lon="6.10664">
        <ele>421.68</ele>
        <time>2016-02-15T10:26:53Z</time>
      </trkpt>
      <trkpt lat="43.59163" lon="6.10638">
        <ele>416.87</ele>
        <time>2016-02-15T10:27:11Z</time>
      </trkpt>
      <trkpt lat="43.59173" lon="6.10612">
        <ele>413.98</ele>
        <time>2016-02-15T10:27:31Z</time>
      </trkpt>
      <trkpt lat="43.59173" lon="6.10611">
        <ele>413.98</ele>
        <time>2016-02-15T10:27:32Z</time>
      </trkpt>
      <trkpt lat="43.59191" lon="6.10599">
        <ele>415.43</ele>
        <time>2016-02-15T10:27:51Z</time>
      </trkpt>
      <trkpt lat="43.59212" lon="6.10605">
        <ele>414.47</ele>
        <time>2016-02-15T10:28:11Z</time>
      </trkpt>
      <trkpt lat="43.59233" lon="6.10608">
        <ele>412.06</ele>
        <time>2016-02-15T10:28:30Z</time>
      </trkpt>
      <trkpt lat="43.59248" lon="6.10601">
        <ele>410.62</ele>
        <time>2016-02-15T10:28:46Z</time>
      </trkpt>
      <trkpt lat="43.59273" lon="6.10592">
        <ele>409.66</ele>
        <time>2016-02-15T10:29:08Z</time>
      </trkpt>
      <trkpt lat="43.59293" lon="6.10595">
        <ele>407.26</ele>
        <time>2016-02-15T10:29:27Z</time>
      </trkpt>
      <trkpt lat="43.59314" lon="6.10598">
        <ele>406.29</ele>
        <time>2016-02-15T10:29:45Z</time>
      </trkpt>
      <trkpt lat="43.59335" lon="6.10602">
        <ele>406.29</ele>
        <time>2016-02-15T10:30:05Z</time>
      </trkpt>
      <trkpt lat="43.59347" lon="6.10605">
        <ele>406.77</ele>
        <time>2016-02-15T10:30:21Z</time>
      </trkpt>
      <trkpt lat="43.59361" lon="6.10612">
        <ele>407.26</ele>
        <time>2016-02-15T10:30:36Z</time>
      </trkpt>
      <trkpt lat="43.59378" lon="6.10622">
        <ele>406.77</ele>
        <time>2016-02-15T10:30:55Z</time>
      </trkpt>
      <trkpt lat="43.59394" lon="6.10632">
        <ele>408.7</ele>
        <time>2016-02-15T10:31:11Z</time>
      </trkpt>
      <trkpt lat="43.59413" lon="6.10644">
        <ele>408.22</ele>
        <time>2016-02-15T10:31:30Z</time>
      </trkpt>
      <trkpt lat="43.59422" lon="6.10649">
        <ele>407.74</ele>
        <time>2016-02-15T10:31:46Z</time>
      </trkpt>
      <trkpt lat="43.59435" lon="6.10657">
        <ele>408.7</ele>
        <time>2016-02-15T10:32:01Z</time>
      </trkpt>
      <trkpt lat="43.59449" lon="6.10667">
        <ele>408.7</ele>
        <time>2016-02-15T10:32:17Z</time>
      </trkpt>
      <trkpt lat="43.59458" lon="6.10693">
        <ele>407.74</ele>
        <time>2016-02-15T10:32:35Z</time>
      </trkpt>
      <trkpt lat="43.59464" lon="6.10712">
        <ele>409.66</ele>
        <time>2016-02-15T10:32:49Z</time>
      </trkpt>
      <trkpt lat="43.59469" lon="6.10732">
        <ele>411.1</ele>
        <time>2016-02-15T10:33:03Z</time>
      </trkpt>
      <trkpt lat="43.59476" lon="6.10759">
        <ele>411.58</ele>
        <time>2016-02-15T10:33:21Z</time>
      </trkpt>
      <trkpt lat="43.59481" lon="6.10794">
        <ele>411.58</ele>
        <time>2016-02-15T10:33:42Z</time>
      </trkpt>
      <trkpt lat="43.59493" lon="6.10813">
        <ele>412.54</ele>
        <time>2016-02-15T10:33:59Z</time>
      </trkpt>
      <trkpt lat="43.59508" lon="6.10828">
        <ele>411.58</ele>
        <time>2016-02-15T10:34:16Z</time>
      </trkpt>
      <trkpt lat="43.59526" lon="6.10835">
        <ele>415.91</ele>
        <time>2016-02-15T10:34:33Z</time>
      </trkpt>
      <trkpt lat="43.59527" lon="6.10835">
        <ele>416.39</ele>
        <time>2016-02-15T10:34:34Z</time>
      </trkpt>
      <trkpt lat="43.59533" lon="6.10854">
        <ele>414.47</ele>
        <time>2016-02-15T10:34:50Z</time>
      </trkpt>
      <trkpt lat="43.59536" lon="6.10873">
        <ele>413.02</ele>
        <time>2016-02-15T10:35:05Z</time>
      </trkpt>
      <trkpt lat="43.5954" lon="6.10902">
        <ele>413.02</ele>
        <time>2016-02-15T10:35:26Z</time>
      </trkpt>
      <trkpt lat="43.5954" lon="6.10926">
        <ele>412.54</ele>
        <time>2016-02-15T10:35:42Z</time>
      </trkpt>
      <trkpt lat="43.59539" lon="6.10945">
        <ele>412.06</ele>
        <time>2016-02-15T10:35:57Z</time>
      </trkpt>
      <trkpt lat="43.59539" lon="6.10955">
        <ele>412.06</ele>
        <time>2016-02-15T10:36:03Z</time>
      </trkpt>
      <trkpt lat="43.59539" lon="6.10961">
        <ele>411.58</ele>
        <time>2016-02-15T10:36:07Z</time>
      </trkpt>
      <trkpt lat="43.59538" lon="6.1098">
        <ele>410.62</ele>
        <time>2016-02-15T10:36:18Z</time>
      </trkpt>
      <trkpt lat="43.59538" lon="6.10986">
        <ele>409.66</ele>
        <time>2016-02-15T10:36:22Z</time>
      </trkpt>
      <trkpt lat="43.59535" lon="6.11002">
        <ele>409.18</ele>
        <time>2016-02-15T10:36:36Z</time>
      </trkpt>
      <trkpt lat="43.59534" lon="6.11002">
        <ele>409.66</ele>
        <time>2016-02-15T10:36:52Z</time>
      </trkpt>
      <trkpt lat="43.59534" lon="6.11007">
        <ele>410.62</ele>
        <time>2016-02-15T10:37:17Z</time>
      </trkpt>
      <trkpt lat="43.59532" lon="6.11036">
        <ele>412.06</ele>
        <time>2016-02-15T10:37:37Z</time>
      </trkpt>
      <trkpt lat="43.5953" lon="6.11047">
        <ele>413.5</ele>
        <time>2016-02-15T10:37:45Z</time>
      </trkpt>
      <trkpt lat="43.5953" lon="6.11053">
        <ele>413.98</ele>
        <time>2016-02-15T10:37:49Z</time>
      </trkpt>
      <trkpt lat="43.5953" lon="6.11056">
        <ele>413.5</ele>
        <time>2016-02-15T10:37:51Z</time>
      </trkpt>
      <trkpt lat="43.59529" lon="6.11075">
        <ele>413.02</ele>
        <time>2016-02-15T10:38:05Z</time>
      </trkpt>
      <trkpt lat="43.59528" lon="6.11092">
        <ele>413.5</ele>
        <time>2016-02-15T10:38:17Z</time>
      </trkpt>
      <trkpt lat="43.59527" lon="6.11109">
        <ele>412.06</ele>
        <time>2016-02-15T10:38:29Z</time>
      </trkpt>
      <trkpt lat="43.59527" lon="6.11124">
        <ele>410.14</ele>
        <time>2016-02-15T10:38:40Z</time>
      </trkpt>
      <trkpt lat="43.59524" lon="6.11142">
        <ele>406.77</ele>
        <time>2016-02-15T10:38:53Z</time>
      </trkpt>
      <trkpt lat="43.59525" lon="6.11147">
        <ele>406.29</ele>
        <time>2016-02-15T10:38:57Z</time>
      </trkpt>
      <trkpt lat="43.59525" lon="6.11164">
        <ele>406.29</ele>
        <time>2016-02-15T10:39:12Z</time>
      </trkpt>
      <trkpt lat="43.59523" lon="6.11198">
        <ele>404.37</ele>
        <time>2016-02-15T10:39:32Z</time>
      </trkpt>
      <trkpt lat="43.59521" lon="6.11221">
        <ele>408.7</ele>
        <time>2016-02-15T10:39:46Z</time>
      </trkpt>
      <trkpt lat="43.5952" lon="6.11223">
        <ele>409.18</ele>
        <time>2016-02-15T10:40:01Z</time>
      </trkpt>
      <trkpt lat="43.59518" lon="6.11238">
        <ele>410.14</ele>
        <time>2016-02-15T10:40:11Z</time>
      </trkpt>
      <trkpt lat="43.59515" lon="6.11255">
        <ele>409.18</ele>
        <time>2016-02-15T10:40:22Z</time>
      </trkpt>
      <trkpt lat="43.59514" lon="6.11262">
        <ele>409.18</ele>
        <time>2016-02-15T10:40:26Z</time>
      </trkpt>
      <trkpt lat="43.59506" lon="6.11292">
        <ele>411.1</ele>
        <time>2016-02-15T10:40:45Z</time>
      </trkpt>
      <trkpt lat="43.59498" lon="6.11315">
        <ele>410.62</ele>
        <time>2016-02-15T10:41:02Z</time>
      </trkpt>
      <trkpt lat="43.59489" lon="6.11338">
        <ele>410.14</ele>
        <time>2016-02-15T10:41:21Z</time>
      </trkpt>
      <trkpt lat="43.5948" lon="6.11369">
        <ele>408.22</ele>
        <time>2016-02-15T10:41:40Z</time>
      </trkpt>
      <trkpt lat="43.59473" lon="6.11395">
        <ele>407.26</ele>
        <time>2016-02-15T10:41:56Z</time>
      </trkpt>
      <trkpt lat="43.59463" lon="6.11419">
        <ele>406.77</ele>
        <time>2016-02-15T10:42:13Z</time>
      </trkpt>
      <trkpt lat="43.59448" lon="6.11446">
        <ele>408.22</ele>
        <time>2016-02-15T10:42:32Z</time>
      </trkpt>
      <trkpt lat="43.59438" lon="6.11465">
        <ele>407.26</ele>
        <time>2016-02-15T10:42:45Z</time>
      </trkpt>
      <trkpt lat="43.59428" lon="6.11484">
        <ele>406.29</ele>
        <time>2016-02-15T10:42:59Z</time>
      </trkpt>
      <trkpt lat="43.59426" lon="6.11488">
        <ele>406.77</ele>
        <time>2016-02-15T10:43:03Z</time>
      </trkpt>
      <trkpt lat="43.59415" lon="6.11503">
        <ele>404.85</ele>
        <time>2016-02-15T10:43:15Z</time>
      </trkpt>
      <trkpt lat="43.59403" lon="6.11518">
        <ele>402.45</ele>
        <time>2016-02-15T10:43:29Z</time>
      </trkpt>
      <trkpt lat="43.59396" lon="6.11527">
        <ele>401.01</ele>
        <time>2016-02-15T10:43:37Z</time>
      </trkpt>
      <trkpt lat="43.59387" lon="6.1154">
        <ele>399.08</ele>
        <time>2016-02-15T10:43:50Z</time>
      </trkpt>
      <trkpt lat="43.59376" lon="6.1156">
        <ele>397.64</ele>
        <time>2016-02-15T10:44:05Z</time>
      </trkpt>
      <trkpt lat="43.59365" lon="6.1158">
        <ele>397.64</ele>
        <time>2016-02-15T10:44:18Z</time>
      </trkpt>
      <trkpt lat="43.59357" lon="6.11594">
        <ele>397.64</ele>
        <time>2016-02-15T10:44:30Z</time>
      </trkpt>
      <trkpt lat="43.59348" lon="6.11607">
        <ele>397.64</ele>
        <time>2016-02-15T10:44:43Z</time>
      </trkpt>
      <trkpt lat="43.59343" lon="6.11616">
        <ele>398.6</ele>
        <time>2016-02-15T10:44:50Z</time>
      </trkpt>
      <trkpt lat="43.59336" lon="6.11621">
        <ele>399.57</ele>
        <time>2016-02-15T10:44:56Z</time>
      </trkpt>
      <trkpt lat="43.59333" lon="6.11627">
        <ele>399.08</ele>
        <time>2016-02-15T10:45:01Z</time>
      </trkpt>
      <trkpt lat="43.59322" lon="6.11641">
        <ele>399.57</ele>
        <time>2016-02-15T10:45:13Z</time>
      </trkpt>
      <trkpt lat="43.59311" lon="6.11657">
        <ele>401.01</ele>
        <time>2016-02-15T10:45:26Z</time>
      </trkpt>
      <trkpt lat="43.593" lon="6.11675">
        <ele>399.08</ele>
        <time>2016-02-15T10:45:40Z</time>
      </trkpt>
      <trkpt lat="43.59292" lon="6.11691">
        <ele>397.16</ele>
        <time>2016-02-15T10:45:52Z</time>
      </trkpt>
      <trkpt lat="43.59282" lon="6.11708">
        <ele>396.2</ele>
        <time>2016-02-15T10:46:05Z</time>
      </trkpt>
      <trkpt lat="43.59272" lon="6.11725">
        <ele>394.76</ele>
        <time>2016-02-15T10:46:18Z</time>
      </trkpt>
      <trkpt lat="43.59263" lon="6.11741">
        <ele>395.24</ele>
        <time>2016-02-15T10:46:30Z</time>
      </trkpt>
      <trkpt lat="43.59257" lon="6.1175">
        <ele>395.24</ele>
        <time>2016-02-15T10:46:46Z</time>
      </trkpt>
      <trkpt lat="43.59241" lon="6.11773">
        <ele>397.16</ele>
        <time>2016-02-15T10:47:07Z</time>
      </trkpt>
      <trkpt lat="43.59223" lon="6.11794">
        <ele>396.2</ele>
        <time>2016-02-15T10:47:27Z</time>
      </trkpt>
      <trkpt lat="43.59209" lon="6.11815">
        <ele>395.72</ele>
        <time>2016-02-15T10:47:45Z</time>
      </trkpt>
      <trkpt lat="43.59199" lon="6.11844">
        <ele>392.36</ele>
        <time>2016-02-15T10:48:07Z</time>
      </trkpt>
      <trkpt lat="43.59198" lon="6.11851">
        <ele>391.87</ele>
        <time>2016-02-15T10:48:11Z</time>
      </trkpt>
      <trkpt lat="43.59196" lon="6.11896">
        <ele>390.43</ele>
        <time>2016-02-15T10:48:33Z</time>
      </trkpt>
      <trkpt lat="43.59196" lon="6.11926">
        <ele>389.47</ele>
        <time>2016-02-15T10:48:53Z</time>
      </trkpt>
      <trkpt lat="43.59194" lon="6.11965">
        <ele>387.55</ele>
        <time>2016-02-15T10:49:16Z</time>
      </trkpt>
      <trkpt lat="43.5919" lon="6.11984">
        <ele>387.55</ele>
        <time>2016-02-15T10:49:34Z</time>
      </trkpt>
      <trkpt lat="43.59189" lon="6.11992">
        <ele>387.55</ele>
        <time>2016-02-15T10:49:47Z</time>
      </trkpt>
      <trkpt lat="43.59189" lon="6.12019">
        <ele>387.55</ele>
        <time>2016-02-15T10:50:03Z</time>
      </trkpt>
      <trkpt lat="43.5919" lon="6.12037">
        <ele>389.95</ele>
        <time>2016-02-15T10:50:20Z</time>
      </trkpt>
      <trkpt lat="43.59192" lon="6.12049">
        <ele>392.36</ele>
        <time>2016-02-15T10:50:43Z</time>
      </trkpt>
      <trkpt lat="43.59193" lon="6.12073">
        <ele>392.36</ele>
        <time>2016-02-15T10:50:59Z</time>
      </trkpt>
      <trkpt lat="43.5919" lon="6.12112">
        <ele>392.84</ele>
        <time>2016-02-15T10:51:22Z</time>
      </trkpt>
      <trkpt lat="43.59185" lon="6.12147">
        <ele>392.84</ele>
        <time>2016-02-15T10:51:44Z</time>
      </trkpt>
      <trkpt lat="43.59179" lon="6.1218">
        <ele>392.84</ele>
        <time>2016-02-15T10:52:05Z</time>
      </trkpt>
      <trkpt lat="43.59173" lon="6.12207">
        <ele>392.84</ele>
        <time>2016-02-15T10:52:21Z</time>
      </trkpt>
      <trkpt lat="43.59167" lon="6.12234">
        <ele>391.87</ele>
        <time>2016-02-15T10:52:40Z</time>
      </trkpt>
      <trkpt lat="43.59157" lon="6.12269">
        <ele>391.87</ele>
        <time>2016-02-15T10:53:01Z</time>
      </trkpt>
      <trkpt lat="43.59155" lon="6.12289">
        <ele>392.36</ele>
        <time>2016-02-15T10:53:15Z</time>
      </trkpt>
      <trkpt lat="43.59155" lon="6.12328">
        <ele>393.32</ele>
        <time>2016-02-15T10:53:38Z</time>
      </trkpt>
      <trkpt lat="43.59155" lon="6.12354">
        <ele>393.8</ele>
        <time>2016-02-15T10:53:54Z</time>
      </trkpt>
      <trkpt lat="43.59157" lon="6.12388">
        <ele>395.24</ele>
        <time>2016-02-15T10:54:14Z</time>
      </trkpt>
      <trkpt lat="43.59158" lon="6.12425">
        <ele>394.76</ele>
        <time>2016-02-15T10:54:36Z</time>
      </trkpt>
      <trkpt lat="43.59156" lon="6.12459">
        <ele>394.28</ele>
        <time>2016-02-15T10:54:56Z</time>
      </trkpt>
      <trkpt lat="43.59162" lon="6.12492">
        <ele>395.24</ele>
        <time>2016-02-15T10:55:19Z</time>
      </trkpt>
      <trkpt lat="43.59162" lon="6.12518">
        <ele>393.8</ele>
        <time>2016-02-15T10:55:37Z</time>
      </trkpt>
      <trkpt lat="43.59159" lon="6.12549">
        <ele>393.8</ele>
        <time>2016-02-15T10:55:56Z</time>
      </trkpt>
      <trkpt lat="43.59163" lon="6.12582">
        <ele>391.87</ele>
        <time>2016-02-15T10:56:17Z</time>
      </trkpt>
      <trkpt lat="43.59172" lon="6.12608">
        <ele>390.43</ele>
        <time>2016-02-15T10:56:36Z</time>
      </trkpt>
      <trkpt lat="43.59182" lon="6.12637">
        <ele>390.91</ele>
        <time>2016-02-15T10:56:56Z</time>
      </trkpt>
      <trkpt lat="43.59183" lon="6.12645">
        <ele>390.91</ele>
        <time>2016-02-15T10:57:01Z</time>
      </trkpt>
      <trkpt lat="43.59177" lon="6.12676">
        <ele>392.36</ele>
        <time>2016-02-15T10:57:21Z</time>
      </trkpt>
      <trkpt lat="43.59168" lon="6.12703">
        <ele>393.8</ele>
        <time>2016-02-15T10:57:40Z</time>
      </trkpt>
      <trkpt lat="43.59158" lon="6.1273">
        <ele>393.32</ele>
        <time>2016-02-15T10:58:01Z</time>
      </trkpt>
      <trkpt lat="43.59152" lon="6.12744">
        <ele>392.84</ele>
        <time>2016-02-15T10:58:13Z</time>
      </trkpt>
      <trkpt lat="43.59149" lon="6.12742">
        <ele>392.84</ele>
        <time>2016-02-15T10:58:21Z</time>
      </trkpt>
      <trkpt lat="43.59149" lon="6.12733">
        <ele>392.84</ele>
        <time>2016-02-15T10:58:27Z</time>
      </trkpt>
      <trkpt lat="43.59146" lon="6.12728">
        <ele>392.36</ele>
        <time>2016-02-15T10:58:34Z</time>
      </trkpt>
      <trkpt lat="43.59133" lon="6.12719">
        <ele>391.39</ele>
        <time>2016-02-15T10:58:48Z</time>
      </trkpt>
      <trkpt lat="43.59124" lon="6.12714">
        <ele>391.87</ele>
        <time>2016-02-15T10:59:00Z</time>
      </trkpt>
      <trkpt lat="43.59124" lon="6.12712">
        <ele>392.36</ele>
        <time>2016-02-15T10:59:14Z</time>
      </trkpt>
      <trkpt lat="43.59124" lon="6.12714">
        <ele>393.32</ele>
        <time>2016-02-15T10:59:44Z</time>
      </trkpt>
      <trkpt lat="43.59125" lon="6.12714">
        <ele>393.8</ele>
        <time>2016-02-15T11:00:09Z</time>
      </trkpt>
      <trkpt lat="43.59126" lon="6.12714">
        <ele>394.76</ele>
        <time>2016-02-15T11:00:29Z</time>
      </trkpt>
      <trkpt lat="43.59126" lon="6.12713">
        <ele>395.24</ele>
        <time>2016-02-15T11:00:49Z</time>
      </trkpt>
      <trkpt lat="43.59127" lon="6.12713">
        <ele>395.24</ele>
        <time>2016-02-15T11:01:08Z</time>
      </trkpt>
      <trkpt lat="43.59127" lon="6.12713">
        <ele>396.2</ele>
        <time>2016-02-15T11:01:22Z</time>
      </trkpt>
      <trkpt lat="43.59125" lon="6.12713">
        <ele>396.68</ele>
        <time>2016-02-15T11:01:29Z</time>
      </trkpt>
      <trkpt lat="43.59119" lon="6.12712">
        <ele>396.2</ele>
        <time>2016-02-15T11:01:43Z</time>
      </trkpt>
      <trkpt lat="43.59111" lon="6.12709">
        <ele>397.16</ele>
        <time>2016-02-15T11:01:55Z</time>
      </trkpt>
      <trkpt lat="43.59102" lon="6.12703">
        <ele>399.08</ele>
        <time>2016-02-15T11:02:10Z</time>
      </trkpt>
      <trkpt lat="43.59101" lon="6.127">
        <ele>400.05</ele>
        <time>2016-02-15T11:02:19Z</time>
      </trkpt>
      <trkpt lat="43.59087" lon="6.12701">
        <ele>401.01</ele>
        <time>2016-02-15T11:02:32Z</time>
      </trkpt>
      <trkpt lat="43.59077" lon="6.12701">
        <ele>400.53</ele>
        <time>2016-02-15T11:02:46Z</time>
      </trkpt>
      <trkpt lat="43.59075" lon="6.12703">
        <ele>400.53</ele>
        <time>2016-02-15T11:02:53Z</time>
      </trkpt>
      <trkpt lat="43.59066" lon="6.12708">
        <ele>400.53</ele>
        <time>2016-02-15T11:03:04Z</time>
      </trkpt>
      <trkpt lat="43.59064" lon="6.12712">
        <ele>400.53</ele>
        <time>2016-02-15T11:03:09Z</time>
      </trkpt>
      <trkpt lat="43.59061" lon="6.12708">
        <ele>400.53</ele>
        <time>2016-02-15T11:03:21Z</time>
      </trkpt>
      <trkpt lat="43.59057" lon="6.12702">
        <ele>401.01</ele>
        <time>2016-02-15T11:03:34Z</time>
      </trkpt>
      <trkpt lat="43.59056" lon="6.127">
        <ele>400.53</ele>
        <time>2016-02-15T11:03:43Z</time>
      </trkpt>
      <trkpt lat="43.59045" lon="6.12695">
        <ele>400.53</ele>
        <time>2016-02-15T11:03:56Z</time>
      </trkpt>
      <trkpt lat="43.59044" lon="6.12695">
        <ele>400.53</ele>
        <time>2016-02-15T11:03:57Z</time>
      </trkpt>
      <trkpt lat="43.59031" lon="6.12694">
        <ele>400.05</ele>
        <time>2016-02-15T11:04:09Z</time>
      </trkpt>
      <trkpt lat="43.59023" lon="6.12692">
        <ele>400.53</ele>
        <time>2016-02-15T11:04:19Z</time>
      </trkpt>
      <trkpt lat="43.5902" lon="6.12689">
        <ele>401.49</ele>
        <time>2016-02-15T11:04:23Z</time>
      </trkpt>
      <trkpt lat="43.59018" lon="6.12684">
        <ele>402.45</ele>
        <time>2016-02-15T11:04:28Z</time>
      </trkpt>
      <trkpt lat="43.59011" lon="6.12675">
        <ele>403.41</ele>
        <time>2016-02-15T11:04:39Z</time>
      </trkpt>
      <trkpt lat="43.59001" lon="6.12666">
        <ele>404.37</ele>
        <time>2016-02-15T11:04:49Z</time>
      </trkpt>
      <trkpt lat="43.58992" lon="6.12657">
        <ele>404.37</ele>
        <time>2016-02-15T11:05:01Z</time>
      </trkpt>
      <trkpt lat="43.58983" lon="6.12654">
        <ele>404.37</ele>
        <time>2016-02-15T11:05:11Z</time>
      </trkpt>
      <trkpt lat="43.58974" lon="6.12639">
        <ele>403.41</ele>
        <time>2016-02-15T11:05:25Z</time>
      </trkpt>
      <trkpt lat="43.58966" lon="6.12627">
        <ele>402.93</ele>
        <time>2016-02-15T11:05:36Z</time>
      </trkpt>
      <trkpt lat="43.58965" lon="6.12625">
        <ele>402.45</ele>
        <time>2016-02-15T11:05:39Z</time>
      </trkpt>
      <trkpt lat="43.5896" lon="6.12621">
        <ele>401.49</ele>
        <time>2016-02-15T11:05:45Z</time>
      </trkpt>
      <trkpt lat="43.58951" lon="6.12607">
        <ele>399.57</ele>
        <time>2016-02-15T11:05:57Z</time>
      </trkpt>
      <trkpt lat="43.58941" lon="6.12599">
        <ele>398.6</ele>
        <time>2016-02-15T11:06:09Z</time>
      </trkpt>
      <trkpt lat="43.58942" lon="6.12595">
        <ele>398.12</ele>
        <time>2016-02-15T11:06:22Z</time>
      </trkpt>
      <trkpt lat="43.58942" lon="6.12584">
        <ele>397.64</ele>
        <time>2016-02-15T11:06:40Z</time>
      </trkpt>
      <trkpt lat="43.58941" lon="6.12578">
        <ele>398.6</ele>
        <time>2016-02-15T11:06:57Z</time>
      </trkpt>
      <trkpt lat="43.58938" lon="6.12575">
        <ele>399.57</ele>
        <time>2016-02-15T11:07:02Z</time>
      </trkpt>
      <trkpt lat="43.58937" lon="6.1257">
        <ele>400.53</ele>
        <time>2016-02-15T11:07:07Z</time>
      </trkpt>
      <trkpt lat="43.58929" lon="6.12549">
        <ele>401.01</ele>
        <time>2016-02-15T11:07:22Z</time>
      </trkpt>
      <trkpt lat="43.58922" lon="6.12539">
        <ele>401.49</ele>
        <time>2016-02-15T11:07:32Z</time>
      </trkpt>
      <trkpt lat="43.58915" lon="6.12519">
        <ele>402.93</ele>
        <time>2016-02-15T11:07:46Z</time>
      </trkpt>
      <trkpt lat="43.58913" lon="6.12509">
        <ele>401.97</ele>
        <time>2016-02-15T11:07:54Z</time>
      </trkpt>
      <trkpt lat="43.589" lon="6.12499">
        <ele>402.45</ele>
        <time>2016-02-15T11:08:07Z</time>
      </trkpt>
      <trkpt lat="43.5889" lon="6.12498">
        <ele>403.41</ele>
        <time>2016-02-15T11:08:18Z</time>
      </trkpt>
      <trkpt lat="43.58884" lon="6.12499">
        <ele>403.89</ele>
        <time>2016-02-15T11:08:24Z</time>
      </trkpt>
      <trkpt lat="43.58871" lon="6.12497">
        <ele>403.89</ele>
        <time>2016-02-15T11:08:37Z</time>
      </trkpt>
      <trkpt lat="43.58861" lon="6.12497">
        <ele>405.33</ele>
        <time>2016-02-15T11:08:50Z</time>
      </trkpt>
      <trkpt lat="43.58857" lon="6.12499">
        <ele>404.37</ele>
        <time>2016-02-15T11:08:54Z</time>
      </trkpt>
      <trkpt lat="43.5885" lon="6.12502">
        <ele>405.33</ele>
        <time>2016-02-15T11:09:00Z</time>
      </trkpt>
      <trkpt lat="43.58839" lon="6.12507">
        <ele>403.41</ele>
        <time>2016-02-15T11:09:11Z</time>
      </trkpt>
      <trkpt lat="43.58832" lon="6.12506">
        <ele>401.49</ele>
        <time>2016-02-15T11:09:21Z</time>
      </trkpt>
      <trkpt lat="43.58828" lon="6.12506">
        <ele>400.53</ele>
        <time>2016-02-15T11:09:25Z</time>
      </trkpt>
      <trkpt lat="43.58824" lon="6.12507">
        <ele>400.53</ele>
        <time>2016-02-15T11:09:29Z</time>
      </trkpt>
      <trkpt lat="43.58815" lon="6.12508">
        <ele>400.05</ele>
        <time>2016-02-15T11:09:42Z</time>
      </trkpt>
      <trkpt lat="43.58804" lon="6.12515">
        <ele>403.41</ele>
        <time>2016-02-15T11:09:52Z</time>
      </trkpt>
      <trkpt lat="43.58803" lon="6.12515">
        <ele>405.33</ele>
        <time>2016-02-15T11:10:09Z</time>
      </trkpt>
      <trkpt lat="43.58807" lon="6.12526">
        <ele>404.85</ele>
        <time>2016-02-15T11:10:23Z</time>
      </trkpt>
      <trkpt lat="43.58805" lon="6.12543">
        <ele>406.77</ele>
        <time>2016-02-15T11:10:34Z</time>
      </trkpt>
      <trkpt lat="43.58803" lon="6.12554">
        <ele>406.77</ele>
        <time>2016-02-15T11:10:44Z</time>
      </trkpt>
      <trkpt lat="43.588" lon="6.12576">
        <ele>404.37</ele>
        <time>2016-02-15T11:10:59Z</time>
      </trkpt>
      <trkpt lat="43.58802" lon="6.12595">
        <ele>404.37</ele>
        <time>2016-02-15T11:11:12Z</time>
      </trkpt>
      <trkpt lat="43.58806" lon="6.126">
        <ele>404.85</ele>
        <time>2016-02-15T11:11:27Z</time>
      </trkpt>
      <trkpt lat="43.58803" lon="6.12603">
        <ele>404.85</ele>
        <time>2016-02-15T11:11:54Z</time>
      </trkpt>
      <trkpt lat="43.58805" lon="6.12624">
        <ele>404.85</ele>
        <time>2016-02-15T11:12:10Z</time>
      </trkpt>
      <trkpt lat="43.58804" lon="6.12646">
        <ele>405.81</ele>
        <time>2016-02-15T11:12:26Z</time>
      </trkpt>
      <trkpt lat="43.58803" lon="6.12655">
        <ele>406.29</ele>
        <time>2016-02-15T11:12:40Z</time>
      </trkpt>
      <trkpt lat="43.58805" lon="6.12673">
        <ele>404.85</ele>
        <time>2016-02-15T11:12:53Z</time>
      </trkpt>
      <trkpt lat="43.58806" lon="6.12691">
        <ele>405.81</ele>
        <time>2016-02-15T11:13:04Z</time>
      </trkpt>
      <trkpt lat="43.58808" lon="6.12699">
        <ele>404.37</ele>
        <time>2016-02-15T11:13:10Z</time>
      </trkpt>
      <trkpt lat="43.58808" lon="6.12704">
        <ele>403.89</ele>
        <time>2016-02-15T11:13:15Z</time>
      </trkpt>
      <trkpt lat="43.5881" lon="6.12712">
        <ele>403.41</ele>
        <time>2016-02-15T11:13:22Z</time>
      </trkpt>
      <trkpt lat="43.58811" lon="6.12718">
        <ele>403.89</ele>
        <time>2016-02-15T11:13:27Z</time>
      </trkpt>
      <trkpt lat="43.58813" lon="6.12721">
        <ele>403.89</ele>
        <time>2016-02-15T11:13:34Z</time>
      </trkpt>
      <trkpt lat="43.58815" lon="6.12724">
        <ele>403.89</ele>
        <time>2016-02-15T11:13:38Z</time>
      </trkpt>
      <trkpt lat="43.58814" lon="6.12729">
        <ele>404.37</ele>
        <time>2016-02-15T11:13:44Z</time>
      </trkpt>
      <trkpt lat="43.58812" lon="6.12738">
        <ele>402.93</ele>
        <time>2016-02-15T11:13:52Z</time>
      </trkpt>
      <trkpt lat="43.58812" lon="6.12746">
        <ele>402.93</ele>
        <time>2016-02-15T11:13:56Z</time>
      </trkpt>
      <trkpt lat="43.5881" lon="6.1275">
        <ele>402.93</ele>
        <time>2016-02-15T11:13:58Z</time>
      </trkpt>
      <trkpt lat="43.5881" lon="6.12764">
        <ele>402.93</ele>
        <time>2016-02-15T11:14:09Z</time>
      </trkpt>
      <trkpt lat="43.58809" lon="6.12777">
        <ele>403.89</ele>
        <time>2016-02-15T11:14:19Z</time>
      </trkpt>
      <trkpt lat="43.58809" lon="6.12778">
        <ele>404.37</ele>
        <time>2016-02-15T11:14:31Z</time>
      </trkpt>
      <trkpt lat="43.5881" lon="6.12779">
        <ele>404.85</ele>
        <time>2016-02-15T11:14:41Z</time>
      </trkpt>
      <trkpt lat="43.58811" lon="6.12785">
        <ele>404.85</ele>
        <time>2016-02-15T11:14:52Z</time>
      </trkpt>
      <trkpt lat="43.58811" lon="6.12794">
        <ele>405.81</ele>
        <time>2016-02-15T11:15:07Z</time>
      </trkpt>
      <trkpt lat="43.5881" lon="6.12807">
        <ele>406.77</ele>
        <time>2016-02-15T11:15:18Z</time>
      </trkpt>
      <trkpt lat="43.5881" lon="6.12808">
        <ele>406.77</ele>
        <time>2016-02-15T11:15:28Z</time>
      </trkpt>
      <trkpt lat="43.58808" lon="6.12812">
        <ele>406.77</ele>
        <time>2016-02-15T11:15:40Z</time>
      </trkpt>
      <trkpt lat="43.58808" lon="6.12811">
        <ele>406.77</ele>
        <time>2016-02-15T11:15:41Z</time>
      </trkpt>
      <trkpt lat="43.5881" lon="6.12815">
        <ele>407.26</ele>
        <time>2016-02-15T11:15:51Z</time>
      </trkpt>
      <trkpt lat="43.58808" lon="6.12825">
        <ele>407.74</ele>
        <time>2016-02-15T11:16:04Z</time>
      </trkpt>
      <trkpt lat="43.58806" lon="6.12829">
        <ele>407.74</ele>
        <time>2016-02-15T11:16:07Z</time>
      </trkpt>
      <trkpt lat="43.58804" lon="6.1284">
        <ele>407.74</ele>
        <time>2016-02-15T11:16:18Z</time>
      </trkpt>
      <trkpt lat="43.58803" lon="6.12859">
        <ele>409.66</ele>
        <time>2016-02-15T11:16:32Z</time>
      </trkpt>
      <trkpt lat="43.58803" lon="6.1286">
        <ele>409.66</ele>
        <time>2016-02-15T11:16:38Z</time>
      </trkpt>
      <trkpt lat="43.58799" lon="6.12867">
        <ele>409.66</ele>
        <time>2016-02-15T11:16:52Z</time>
      </trkpt>
      <trkpt lat="43.58799" lon="6.12871">
        <ele>408.7</ele>
        <time>2016-02-15T11:17:08Z</time>
      </trkpt>
      <trkpt lat="43.588" lon="6.12873">
        <ele>407.74</ele>
        <time>2016-02-15T11:17:24Z</time>
      </trkpt>
      <trkpt lat="43.58801" lon="6.1288">
        <ele>407.74</ele>
        <time>2016-02-15T11:17:29Z</time>
      </trkpt>
      <trkpt lat="43.58801" lon="6.12888">
        <ele>407.74</ele>
        <time>2016-02-15T11:17:34Z</time>
      </trkpt>
      <trkpt lat="43.58801" lon="6.12889">
        <ele>408.22</ele>
        <time>2016-02-15T11:17:48Z</time>
      </trkpt>
      <trkpt lat="43.58801" lon="6.1289">
        <ele>408.7</ele>
        <time>2016-02-15T11:17:54Z</time>
      </trkpt>
      <trkpt lat="43.588" lon="6.12892">
        <ele>408.7</ele>
        <time>2016-02-15T11:17:57Z</time>
      </trkpt>
      <trkpt lat="43.58798" lon="6.12898">
        <ele>410.14</ele>
        <time>2016-02-15T11:18:11Z</time>
      </trkpt>
      <trkpt lat="43.58798" lon="6.12899">
        <ele>410.14</ele>
        <time>2016-02-15T11:18:20Z</time>
      </trkpt>
      <trkpt lat="43.58787" lon="6.12912">
        <ele>409.66</ele>
        <time>2016-02-15T11:18:32Z</time>
      </trkpt>
      <trkpt lat="43.58786" lon="6.12914">
        <ele>409.18</ele>
        <time>2016-02-15T11:18:35Z</time>
      </trkpt>
      <trkpt lat="43.58782" lon="6.12919">
        <ele>409.18</ele>
        <time>2016-02-15T11:18:39Z</time>
      </trkpt>
      <trkpt lat="43.58771" lon="6.12935">
        <ele>408.22</ele>
        <time>2016-02-15T11:18:52Z</time>
      </trkpt>
      <trkpt lat="43.58761" lon="6.12949">
        <ele>408.7</ele>
        <time>2016-02-15T11:19:06Z</time>
      </trkpt>
      <trkpt lat="43.58758" lon="6.12959">
        <ele>409.66</ele>
        <time>2016-02-15T11:19:13Z</time>
      </trkpt>
      <trkpt lat="43.58757" lon="6.12973">
        <ele>410.14</ele>
        <time>2016-02-15T11:19:23Z</time>
      </trkpt>
      <trkpt lat="43.58752" lon="6.1299">
        <ele>410.14</ele>
        <time>2016-02-15T11:19:37Z</time>
      </trkpt>
      <trkpt lat="43.58747" lon="6.13007">
        <ele>409.66</ele>
        <time>2016-02-15T11:19:49Z</time>
      </trkpt>
      <trkpt lat="43.58743" lon="6.1302">
        <ele>409.18</ele>
        <time>2016-02-15T11:20:00Z</time>
      </trkpt>
      <trkpt lat="43.58737" lon="6.13038">
        <ele>408.7</ele>
        <time>2016-02-15T11:20:11Z</time>
      </trkpt>
      <trkpt lat="43.58732" lon="6.13058">
        <ele>407.26</ele>
        <time>2016-02-15T11:20:24Z</time>
      </trkpt>
      <trkpt lat="43.58732" lon="6.13064">
        <ele>407.26</ele>
        <time>2016-02-15T11:20:28Z</time>
      </trkpt>
      <trkpt lat="43.58731" lon="6.13075">
        <ele>406.29</ele>
        <time>2016-02-15T11:20:37Z</time>
      </trkpt>
      <trkpt lat="43.58726" lon="6.13083">
        <ele>406.29</ele>
        <time>2016-02-15T11:20:49Z</time>
      </trkpt>
      <trkpt lat="43.58718" lon="6.13091">
        <ele>407.74</ele>
        <time>2016-02-15T11:20:58Z</time>
      </trkpt>
      <trkpt lat="43.58711" lon="6.13104">
        <ele>409.66</ele>
        <time>2016-02-15T11:21:09Z</time>
      </trkpt>
      <trkpt lat="43.58704" lon="6.13118">
        <ele>409.18</ele>
        <time>2016-02-15T11:21:21Z</time>
      </trkpt>
      <trkpt lat="43.587" lon="6.13126">
        <ele>410.14</ele>
        <time>2016-02-15T11:21:32Z</time>
      </trkpt>
      <trkpt lat="43.58698" lon="6.13139">
        <ele>411.58</ele>
        <time>2016-02-15T11:21:42Z</time>
      </trkpt>
      <trkpt lat="43.58698" lon="6.13152">
        <ele>413.98</ele>
        <time>2016-02-15T11:21:51Z</time>
      </trkpt>
      <trkpt lat="43.58696" lon="6.13171">
        <ele>415.91</ele>
        <time>2016-02-15T11:22:04Z</time>
      </trkpt>
      <trkpt lat="43.58693" lon="6.13186">
        <ele>416.39</ele>
        <time>2016-02-15T11:22:16Z</time>
      </trkpt>
      <trkpt lat="43.58691" lon="6.13189">
        <ele>415.91</ele>
        <time>2016-02-15T11:22:18Z</time>
      </trkpt>
      <trkpt lat="43.58686" lon="6.13206">
        <ele>413.98</ele>
        <time>2016-02-15T11:22:31Z</time>
      </trkpt>
      <trkpt lat="43.58682" lon="6.13216">
        <ele>411.1</ele>
        <time>2016-02-15T11:22:44Z</time>
      </trkpt>
      <trkpt lat="43.58682" lon="6.13218">
        <ele>409.66</ele>
        <time>2016-02-15T11:22:47Z</time>
      </trkpt>
      <trkpt lat="43.5868" lon="6.13221">
        <ele>408.7</ele>
        <time>2016-02-15T11:22:49Z</time>
      </trkpt>
      <trkpt lat="43.58678" lon="6.13238">
        <ele>409.18</ele>
        <time>2016-02-15T11:23:02Z</time>
      </trkpt>
      <trkpt lat="43.58677" lon="6.13239">
        <ele>409.66</ele>
        <time>2016-02-15T11:23:04Z</time>
      </trkpt>
      <trkpt lat="43.58674" lon="6.13257">
        <ele>410.62</ele>
        <time>2016-02-15T11:23:16Z</time>
      </trkpt>
      <trkpt lat="43.58672" lon="6.13271">
        <ele>411.58</ele>
        <time>2016-02-15T11:23:25Z</time>
      </trkpt>
      <trkpt lat="43.5867" lon="6.1329">
        <ele>412.06</ele>
        <time>2016-02-15T11:23:37Z</time>
      </trkpt>
      <trkpt lat="43.5867" lon="6.13292">
        <ele>412.54</ele>
        <time>2016-02-15T11:23:39Z</time>
      </trkpt>
      <trkpt lat="43.5867" lon="6.13296">
        <ele>412.54</ele>
        <time>2016-02-15T11:23:41Z</time>
      </trkpt>
      <trkpt lat="43.58667" lon="6.13309">
        <ele>413.5</ele>
        <time>2016-02-15T11:23:50Z</time>
      </trkpt>
      <trkpt lat="43.58664" lon="6.13329">
        <ele>415.91</ele>
        <time>2016-02-15T11:24:04Z</time>
      </trkpt>
      <trkpt lat="43.58663" lon="6.1334">
        <ele>416.39</ele>
        <time>2016-02-15T11:24:11Z</time>
      </trkpt>
      <trkpt lat="43.58658" lon="6.13362">
        <ele>416.39</ele>
        <time>2016-02-15T11:24:24Z</time>
      </trkpt>
      <trkpt lat="43.58652" lon="6.13385">
        <ele>414.95</ele>
        <time>2016-02-15T11:24:43Z</time>
      </trkpt>
      <trkpt lat="43.58649" lon="6.13394">
        <ele>413.98</ele>
        <time>2016-02-15T11:24:51Z</time>
      </trkpt>
      <trkpt lat="43.58647" lon="6.13406">
        <ele>412.54</ele>
        <time>2016-02-15T11:25:00Z</time>
      </trkpt>
      <trkpt lat="43.5864" lon="6.13423">
        <ele>410.62</ele>
        <time>2016-02-15T11:25:10Z</time>
      </trkpt>
      <trkpt lat="43.58638" lon="6.13427">
        <ele>410.14</ele>
        <time>2016-02-15T11:25:13Z</time>
      </trkpt>
      <trkpt lat="43.58635" lon="6.13434">
        <ele>410.62</ele>
        <time>2016-02-15T11:25:19Z</time>
      </trkpt>
      <trkpt lat="43.58633" lon="6.13443">
        <ele>410.62</ele>
        <time>2016-02-15T11:25:27Z</time>
      </trkpt>
      <trkpt lat="43.58633" lon="6.13457">
        <ele>410.14</ele>
        <time>2016-02-15T11:25:37Z</time>
      </trkpt>
      <trkpt lat="43.58635" lon="6.13468">
        <ele>410.62</ele>
        <time>2016-02-15T11:25:45Z</time>
      </trkpt>
      <trkpt lat="43.58635" lon="6.13481">
        <ele>412.54</ele>
        <time>2016-02-15T11:25:54Z</time>
      </trkpt>
      <trkpt lat="43.58635" lon="6.13486">
        <ele>413.02</ele>
        <time>2016-02-15T11:25:57Z</time>
      </trkpt>
      <trkpt lat="43.58633" lon="6.13504">
        <ele>413.02</ele>
        <time>2016-02-15T11:26:07Z</time>
      </trkpt>
      <trkpt lat="43.58627" lon="6.13521">
        <ele>413.98</ele>
        <time>2016-02-15T11:26:19Z</time>
      </trkpt>
      <trkpt lat="43.58625" lon="6.1354">
        <ele>414.47</ele>
        <time>2016-02-15T11:26:32Z</time>
      </trkpt>
      <trkpt lat="43.58623" lon="6.13547">
        <ele>414.95</ele>
        <time>2016-02-15T11:26:38Z</time>
      </trkpt>
      <trkpt lat="43.5862" lon="6.13559">
        <ele>415.43</ele>
        <time>2016-02-15T11:26:52Z</time>
      </trkpt>
      <trkpt lat="43.58618" lon="6.13564">
        <ele>414.95</ele>
        <time>2016-02-15T11:27:01Z</time>
      </trkpt>
      <trkpt lat="43.58617" lon="6.13567">
        <ele>414.95</ele>
        <time>2016-02-15T11:27:03Z</time>
      </trkpt>
      <trkpt lat="43.58616" lon="6.1358">
        <ele>413.98</ele>
        <time>2016-02-15T11:27:15Z</time>
      </trkpt>
      <trkpt lat="43.58617" lon="6.13592">
        <ele>411.58</ele>
        <time>2016-02-15T11:27:27Z</time>
      </trkpt>
      <trkpt lat="43.5862" lon="6.13608">
        <ele>409.66</ele>
        <time>2016-02-15T11:27:39Z</time>
      </trkpt>
      <trkpt lat="43.58621" lon="6.1362">
        <ele>410.62</ele>
        <time>2016-02-15T11:27:48Z</time>
      </trkpt>
      <trkpt lat="43.58619" lon="6.13637">
        <ele>411.58</ele>
        <time>2016-02-15T11:27:59Z</time>
      </trkpt>
      <trkpt lat="43.58615" lon="6.13647">
        <ele>412.06</ele>
        <time>2016-02-15T11:28:09Z</time>
      </trkpt>
      <trkpt lat="43.58614" lon="6.13652">
        <ele>412.54</ele>
        <time>2016-02-15T11:28:13Z</time>
      </trkpt>
      <trkpt lat="43.58612" lon="6.1366">
        <ele>412.54</ele>
        <time>2016-02-15T11:28:19Z</time>
      </trkpt>
      <trkpt lat="43.58607" lon="6.13676">
        <ele>412.54</ele>
        <time>2016-02-15T11:28:30Z</time>
      </trkpt>
      <trkpt lat="43.58605" lon="6.13689">
        <ele>412.06</ele>
        <time>2016-02-15T11:28:40Z</time>
      </trkpt>
      <trkpt lat="43.58606" lon="6.13709">
        <ele>411.1</ele>
        <time>2016-02-15T11:28:52Z</time>
      </trkpt>
      <trkpt lat="43.58607" lon="6.13716">
        <ele>411.1</ele>
        <time>2016-02-15T11:28:57Z</time>
      </trkpt>
      <trkpt lat="43.58607" lon="6.13738">
        <ele>410.14</ele>
        <time>2016-02-15T11:29:09Z</time>
      </trkpt>
      <trkpt lat="43.58604" lon="6.13752">
        <ele>409.18</ele>
        <time>2016-02-15T11:29:19Z</time>
      </trkpt>
      <trkpt lat="43.58602" lon="6.13766">
        <ele>408.7</ele>
        <time>2016-02-15T11:29:28Z</time>
      </trkpt>
      <trkpt lat="43.58599" lon="6.1378">
        <ele>408.7</ele>
        <time>2016-02-15T11:29:37Z</time>
      </trkpt>
      <trkpt lat="43.58597" lon="6.13789">
        <ele>408.7</ele>
        <time>2016-02-15T11:29:43Z</time>
      </trkpt>
      <trkpt lat="43.58596" lon="6.13797">
        <ele>408.7</ele>
        <time>2016-02-15T11:29:48Z</time>
      </trkpt>
      <trkpt lat="43.58593" lon="6.13808">
        <ele>408.7</ele>
        <time>2016-02-15T11:29:56Z</time>
      </trkpt>
      <trkpt lat="43.5859" lon="6.13824">
        <ele>410.14</ele>
        <time>2016-02-15T11:30:08Z</time>
      </trkpt>
      <trkpt lat="43.58587" lon="6.13832">
        <ele>410.14</ele>
        <time>2016-02-15T11:30:22Z</time>
      </trkpt>
      <trkpt lat="43.58584" lon="6.13849">
        <ele>410.14</ele>
        <time>2016-02-15T11:30:34Z</time>
      </trkpt>
      <trkpt lat="43.58583" lon="6.1385">
        <ele>410.14</ele>
        <time>2016-02-15T11:30:41Z</time>
      </trkpt>
      <trkpt lat="43.58577" lon="6.13851">
        <ele>410.14</ele>
        <time>2016-02-15T11:30:51Z</time>
      </trkpt>
      <trkpt lat="43.58577" lon="6.13852">
        <ele>410.14</ele>
        <time>2016-02-15T11:30:54Z</time>
      </trkpt>
      <trkpt lat="43.58576" lon="6.13859">
        <ele>410.14</ele>
        <time>2016-02-15T11:31:00Z</time>
      </trkpt>
      <trkpt lat="43.58578" lon="6.13868">
        <ele>410.14</ele>
        <time>2016-02-15T11:31:05Z</time>
      </trkpt>
      <trkpt lat="43.58577" lon="6.13882">
        <ele>410.14</ele>
        <time>2016-02-15T11:31:17Z</time>
      </trkpt>
      <trkpt lat="43.58577" lon="6.13883">
        <ele>410.14</ele>
        <time>2016-02-15T11:31:18Z</time>
      </trkpt>
      <trkpt lat="43.58574" lon="6.1389">
        <ele>408.7</ele>
        <time>2016-02-15T11:31:24Z</time>
      </trkpt>
      <trkpt lat="43.58565" lon="6.13903">
        <ele>408.7</ele>
        <time>2016-02-15T11:31:36Z</time>
      </trkpt>
      <trkpt lat="43.58559" lon="6.13914">
        <ele>410.62</ele>
        <time>2016-02-15T11:31:46Z</time>
      </trkpt>
      <trkpt lat="43.58557" lon="6.13918">
        <ele>411.1</ele>
        <time>2016-02-15T11:31:50Z</time>
      </trkpt>
      <trkpt lat="43.58554" lon="6.13929">
        <ele>412.06</ele>
        <time>2016-02-15T11:32:00Z</time>
      </trkpt>
      <trkpt lat="43.58549" lon="6.13937">
        <ele>411.58</ele>
        <time>2016-02-15T11:32:09Z</time>
      </trkpt>
      <trkpt lat="43.58546" lon="6.13948">
        <ele>412.06</ele>
        <time>2016-02-15T11:32:16Z</time>
      </trkpt>
      <trkpt lat="43.58542" lon="6.13954">
        <ele>412.54</ele>
        <time>2016-02-15T11:32:23Z</time>
      </trkpt>
      <trkpt lat="43.58538" lon="6.13955">
        <ele>413.02</ele>
        <time>2016-02-15T11:32:28Z</time>
      </trkpt>
      <trkpt lat="43.58534" lon="6.13949">
        <ele>414.47</ele>
        <time>2016-02-15T11:32:40Z</time>
      </trkpt>
      <trkpt lat="43.58534" lon="6.13947">
        <ele>414.95</ele>
        <time>2016-02-15T11:32:53Z</time>
      </trkpt>
      <trkpt lat="43.58534" lon="6.13932">
        <ele>416.87</ele>
        <time>2016-02-15T11:33:06Z</time>
      </trkpt>
      <trkpt lat="43.58535" lon="6.13916">
        <ele>419.27</ele>
        <time>2016-02-15T11:33:19Z</time>
      </trkpt>
      <trkpt lat="43.58534" lon="6.13895">
        <ele>420.23</ele>
        <time>2016-02-15T11:33:32Z</time>
      </trkpt>
      <trkpt lat="43.58535" lon="6.13889">
        <ele>420.23</ele>
        <time>2016-02-15T11:33:37Z</time>
      </trkpt>
      <trkpt lat="43.58535" lon="6.13877">
        <ele>421.68</ele>
        <time>2016-02-15T11:33:47Z</time>
      </trkpt>
      <trkpt lat="43.58536" lon="6.1386">
        <ele>423.12</ele>
        <time>2016-02-15T11:34:01Z</time>
      </trkpt>
      <trkpt lat="43.58537" lon="6.13855">
        <ele>424.08</ele>
        <time>2016-02-15T11:34:04Z</time>
      </trkpt>
      <trkpt lat="43.58539" lon="6.1384">
        <ele>428.89</ele>
        <time>2016-02-15T11:34:17Z</time>
      </trkpt>
      <trkpt lat="43.5854" lon="6.13829">
        <ele>430.81</ele>
        <time>2016-02-15T11:34:27Z</time>
      </trkpt>
      <trkpt lat="43.58543" lon="6.13823">
        <ele>429.37</ele>
        <time>2016-02-15T11:34:46Z</time>
      </trkpt>
      <trkpt lat="43.58542" lon="6.1382">
        <ele>429.85</ele>
        <time>2016-02-15T11:34:51Z</time>
      </trkpt>
      <trkpt lat="43.58534" lon="6.13805">
        <ele>431.29</ele>
        <time>2016-02-15T11:35:04Z</time>
      </trkpt>
      <trkpt lat="43.5853" lon="6.13793">
        <ele>433.21</ele>
        <time>2016-02-15T11:35:14Z</time>
      </trkpt>
      <trkpt lat="43.58524" lon="6.13777">
        <ele>435.13</ele>
        <time>2016-02-15T11:35:28Z</time>
      </trkpt>
      <trkpt lat="43.5852" lon="6.13766">
        <ele>436.58</ele>
        <time>2016-02-15T11:35:39Z</time>
      </trkpt>
      <trkpt lat="43.58517" lon="6.13758">
        <ele>437.54</ele>
        <time>2016-02-15T11:35:45Z</time>
      </trkpt>
      <trkpt lat="43.58514" lon="6.13747">
        <ele>438.5</ele>
        <time>2016-02-15T11:35:55Z</time>
      </trkpt>
      <trkpt lat="43.58514" lon="6.13741">
        <ele>439.46</ele>
        <time>2016-02-15T11:36:12Z</time>
      </trkpt>
      <trkpt lat="43.58508" lon="6.13727">
        <ele>441.38</ele>
        <time>2016-02-15T11:36:24Z</time>
      </trkpt>
      <trkpt lat="43.58503" lon="6.13716">
        <ele>442.34</ele>
        <time>2016-02-15T11:36:34Z</time>
      </trkpt>
      <trkpt lat="43.58497" lon="6.13705">
        <ele>442.82</ele>
        <time>2016-02-15T11:36:45Z</time>
      </trkpt>
      <trkpt lat="43.58492" lon="6.13693">
        <ele>443.31</ele>
        <time>2016-02-15T11:36:54Z</time>
      </trkpt>
      <trkpt lat="43.58485" lon="6.13675">
        <ele>441.86</ele>
        <time>2016-02-15T11:37:06Z</time>
      </trkpt>
      <trkpt lat="43.58481" lon="6.13664">
        <ele>439.94</ele>
        <time>2016-02-15T11:37:16Z</time>
      </trkpt>
      <trkpt lat="43.58473" lon="6.13648">
        <ele>438.5</ele>
        <time>2016-02-15T11:37:28Z</time>
      </trkpt>
      <trkpt lat="43.58471" lon="6.13645">
        <ele>438.5</ele>
        <time>2016-02-15T11:37:31Z</time>
      </trkpt>
      <trkpt lat="43.58467" lon="6.13628">
        <ele>438.02</ele>
        <time>2016-02-15T11:37:44Z</time>
      </trkpt>
      <trkpt lat="43.58465" lon="6.13623">
        <ele>438.5</ele>
        <time>2016-02-15T11:37:49Z</time>
      </trkpt>
      <trkpt lat="43.58461" lon="6.13616">
        <ele>439.46</ele>
        <time>2016-02-15T11:37:56Z</time>
      </trkpt>
      <trkpt lat="43.58455" lon="6.13602">
        <ele>441.38</ele>
        <time>2016-02-15T11:38:09Z</time>
      </trkpt>
      <trkpt lat="43.58451" lon="6.13586">
        <ele>443.79</ele>
        <time>2016-02-15T11:38:22Z</time>
      </trkpt>
      <trkpt lat="43.58441" lon="6.13572">
        <ele>444.75</ele>
        <time>2016-02-15T11:38:35Z</time>
      </trkpt>
      <trkpt lat="43.58433" lon="6.13557">
        <ele>444.75</ele>
        <time>2016-02-15T11:38:49Z</time>
      </trkpt>
      <trkpt lat="43.58425" lon="6.13542">
        <ele>442.82</ele>
        <time>2016-02-15T11:39:03Z</time>
      </trkpt>
      <trkpt lat="43.58425" lon="6.13541">
        <ele>442.82</ele>
        <time>2016-02-15T11:39:04Z</time>
      </trkpt>
      <trkpt lat="43.58424" lon="6.13532">
        <ele>440.9</ele>
        <time>2016-02-15T11:39:17Z</time>
      </trkpt>
      <trkpt lat="43.58422" lon="6.1352">
        <ele>440.42</ele>
        <time>2016-02-15T11:39:28Z</time>
      </trkpt>
      <trkpt lat="43.58422" lon="6.13511">
        <ele>441.38</ele>
        <time>2016-02-15T11:39:35Z</time>
      </trkpt>
      <trkpt lat="43.58421" lon="6.13497">
        <ele>440.42</ele>
        <time>2016-02-15T11:39:46Z</time>
      </trkpt>
      <trkpt lat="43.58423" lon="6.13479">
        <ele>439.94</ele>
        <time>2016-02-15T11:39:57Z</time>
      </trkpt>
      <trkpt lat="43.58425" lon="6.13459">
        <ele>442.34</ele>
        <time>2016-02-15T11:40:09Z</time>
      </trkpt>
      <trkpt lat="43.58425" lon="6.13439">
        <ele>443.31</ele>
        <time>2016-02-15T11:40:21Z</time>
      </trkpt>
      <trkpt lat="43.58423" lon="6.13424">
        <ele>445.71</ele>
        <time>2016-02-15T11:40:33Z</time>
      </trkpt>
      <trkpt lat="43.58422" lon="6.13421">
        <ele>446.67</ele>
        <time>2016-02-15T11:40:36Z</time>
      </trkpt>
      <trkpt lat="43.58421" lon="6.13414">
        <ele>447.63</ele>
        <time>2016-02-15T11:40:41Z</time>
      </trkpt>
      <trkpt lat="43.58418" lon="6.13396">
        <ele>448.11</ele>
        <time>2016-02-15T11:40:54Z</time>
      </trkpt>
      <trkpt lat="43.58418" lon="6.13386">
        <ele>448.11</ele>
        <time>2016-02-15T11:41:00Z</time>
      </trkpt>
      <trkpt lat="43.58421" lon="6.13362">
        <ele>445.23</ele>
        <time>2016-02-15T11:41:13Z</time>
      </trkpt>
      <trkpt lat="43.5842" lon="6.13353">
        <ele>446.19</ele>
        <time>2016-02-15T11:41:21Z</time>
      </trkpt>
      <trkpt lat="43.5842" lon="6.13352">
        <ele>446.19</ele>
        <time>2016-02-15T11:41:22Z</time>
      </trkpt>
      <trkpt lat="43.58422" lon="6.13334">
        <ele>447.63</ele>
        <time>2016-02-15T11:41:34Z</time>
      </trkpt>
      <trkpt lat="43.58418" lon="6.13318">
        <ele>449.07</ele>
        <time>2016-02-15T11:41:47Z</time>
      </trkpt>
      <trkpt lat="43.58408" lon="6.13304">
        <ele>451</ele>
        <time>2016-02-15T11:42:01Z</time>
      </trkpt>
      <trkpt lat="43.58406" lon="6.13303">
        <ele>451</ele>
        <time>2016-02-15T11:42:03Z</time>
      </trkpt>
      <trkpt lat="43.58396" lon="6.13286">
        <ele>452.92</ele>
        <time>2016-02-15T11:42:18Z</time>
      </trkpt>
      <trkpt lat="43.58389" lon="6.1328">
        <ele>451.48</ele>
        <time>2016-02-15T11:42:24Z</time>
      </trkpt>
      <trkpt lat="43.58374" lon="6.13268">
        <ele>451</ele>
        <time>2016-02-15T11:42:38Z</time>
      </trkpt>
      <trkpt lat="43.58372" lon="6.13267">
        <ele>451</ele>
        <time>2016-02-15T11:42:41Z</time>
      </trkpt>
      <trkpt lat="43.58367" lon="6.13262">
        <ele>451.48</ele>
        <time>2016-02-15T11:42:46Z</time>
      </trkpt>
      <trkpt lat="43.58355" lon="6.13245">
        <ele>449.07</ele>
        <time>2016-02-15T11:43:02Z</time>
      </trkpt>
      <trkpt lat="43.58354" lon="6.13243">
        <ele>448.59</ele>
        <time>2016-02-15T11:43:10Z</time>
      </trkpt>
      <trkpt lat="43.58341" lon="6.13234">
        <ele>449.55</ele>
        <time>2016-02-15T11:43:23Z</time>
      </trkpt>
      <trkpt lat="43.58338" lon="6.13227">
        <ele>449.55</ele>
        <time>2016-02-15T11:43:38Z</time>
      </trkpt>
      <trkpt lat="43.58329" lon="6.13217">
        <ele>449.55</ele>
        <time>2016-02-15T11:43:51Z</time>
      </trkpt>
      <trkpt lat="43.58327" lon="6.13213">
        <ele>449.55</ele>
        <time>2016-02-15T11:43:55Z</time>
      </trkpt>
      <trkpt lat="43.5832" lon="6.13196">
        <ele>450.03</ele>
        <time>2016-02-15T11:44:08Z</time>
      </trkpt>
      <trkpt lat="43.58319" lon="6.13193">
        <ele>450.03</ele>
        <time>2016-02-15T11:44:10Z</time>
      </trkpt>
      <trkpt lat="43.58317" lon="6.13187">
        <ele>450.52</ele>
        <time>2016-02-15T11:44:15Z</time>
      </trkpt>
      <trkpt lat="43.58311" lon="6.13166">
        <ele>451.48</ele>
        <time>2016-02-15T11:44:30Z</time>
      </trkpt>
      <trkpt lat="43.58303" lon="6.1315">
        <ele>453.4</ele>
        <time>2016-02-15T11:44:42Z</time>
      </trkpt>
      <trkpt lat="43.58296" lon="6.13138">
        <ele>453.4</ele>
        <time>2016-02-15T11:44:56Z</time>
      </trkpt>
      <trkpt lat="43.58297" lon="6.13131">
        <ele>453.4</ele>
        <time>2016-02-15T11:45:07Z</time>
      </trkpt>
      <trkpt lat="43.58297" lon="6.13128">
        <ele>452.92</ele>
        <time>2016-02-15T11:45:09Z</time>
      </trkpt>
      <trkpt lat="43.58294" lon="6.1312">
        <ele>452.92</ele>
        <time>2016-02-15T11:45:17Z</time>
      </trkpt>
      <trkpt lat="43.58292" lon="6.13117">
        <ele>453.4</ele>
        <time>2016-02-15T11:45:21Z</time>
      </trkpt>
      <trkpt lat="43.58288" lon="6.13112">
        <ele>453.4</ele>
        <time>2016-02-15T11:45:26Z</time>
      </trkpt>
      <trkpt lat="43.58283" lon="6.131">
        <ele>453.88</ele>
        <time>2016-02-15T11:45:35Z</time>
      </trkpt>
      <trkpt lat="43.5828" lon="6.13087">
        <ele>454.36</ele>
        <time>2016-02-15T11:45:48Z</time>
      </trkpt>
      <trkpt lat="43.58281" lon="6.13076">
        <ele>452.44</ele>
        <time>2016-02-15T11:45:56Z</time>
      </trkpt>
      <trkpt lat="43.58284" lon="6.13059">
        <ele>449.55</ele>
        <time>2016-02-15T11:46:10Z</time>
      </trkpt>
      <trkpt lat="43.58285" lon="6.13051">
        <ele>447.63</ele>
        <time>2016-02-15T11:46:17Z</time>
      </trkpt>
      <trkpt lat="43.58292" lon="6.13034">
        <ele>444.27</ele>
        <time>2016-02-15T11:46:31Z</time>
      </trkpt>
      <trkpt lat="43.58298" lon="6.13011">
        <ele>442.82</ele>
        <time>2016-02-15T11:46:46Z</time>
      </trkpt>
      <trkpt lat="43.58298" lon="6.1301">
        <ele>442.34</ele>
        <time>2016-02-15T11:46:47Z</time>
      </trkpt>
      <trkpt lat="43.583" lon="6.12988">
        <ele>440.42</ele>
        <time>2016-02-15T11:47:04Z</time>
      </trkpt>
      <trkpt lat="43.58303" lon="6.1297">
        <ele>441.86</ele>
        <time>2016-02-15T11:47:16Z</time>
      </trkpt>
      <trkpt lat="43.58304" lon="6.12957">
        <ele>445.71</ele>
        <time>2016-02-15T11:47:23Z</time>
      </trkpt>
      <trkpt lat="43.58303" lon="6.12948">
        <ele>447.63</ele>
        <time>2016-02-15T11:47:29Z</time>
      </trkpt>
      <trkpt lat="43.58301" lon="6.1293">
        <ele>449.55</ele>
        <time>2016-02-15T11:47:40Z</time>
      </trkpt>
      <trkpt lat="43.58301" lon="6.12917">
        <ele>449.07</ele>
        <time>2016-02-15T11:47:52Z</time>
      </trkpt>
      <trkpt lat="43.58301" lon="6.12907">
        <ele>449.55</ele>
        <time>2016-02-15T11:47:58Z</time>
      </trkpt>
      <trkpt lat="43.583" lon="6.12889">
        <ele>449.55</ele>
        <time>2016-02-15T11:48:10Z</time>
      </trkpt>
      <trkpt lat="43.58301" lon="6.12867">
        <ele>451</ele>
        <time>2016-02-15T11:48:24Z</time>
      </trkpt>
      <trkpt lat="43.583" lon="6.12859">
        <ele>451.48</ele>
        <time>2016-02-15T11:48:29Z</time>
      </trkpt>
      <trkpt lat="43.583" lon="6.1285">
        <ele>452.44</ele>
        <time>2016-02-15T11:48:34Z</time>
      </trkpt>
      <trkpt lat="43.58302" lon="6.12844">
        <ele>452.92</ele>
        <time>2016-02-15T11:48:39Z</time>
      </trkpt>
      <trkpt lat="43.58306" lon="6.12819">
        <ele>451.48</ele>
        <time>2016-02-15T11:48:55Z</time>
      </trkpt>
      <trkpt lat="43.58308" lon="6.12802">
        <ele>451</ele>
        <time>2016-02-15T11:49:06Z</time>
      </trkpt>
      <trkpt lat="43.58307" lon="6.12787">
        <ele>449.55</ele>
        <time>2016-02-15T11:49:17Z</time>
      </trkpt>
      <trkpt lat="43.58307" lon="6.12777">
        <ele>447.63</ele>
        <time>2016-02-15T11:49:25Z</time>
      </trkpt>
      <trkpt lat="43.58307" lon="6.12756">
        <ele>444.75</ele>
        <time>2016-02-15T11:49:40Z</time>
      </trkpt>
      <trkpt lat="43.58307" lon="6.12733">
        <ele>444.27</ele>
        <time>2016-02-15T11:49:54Z</time>
      </trkpt>
      <trkpt lat="43.58303" lon="6.12714">
        <ele>445.71</ele>
        <time>2016-02-15T11:50:05Z</time>
      </trkpt>
      <trkpt lat="43.58303" lon="6.12691">
        <ele>452.92</ele>
        <time>2016-02-15T11:50:20Z</time>
      </trkpt>
      <trkpt lat="43.58303" lon="6.12685">
        <ele>454.36</ele>
        <time>2016-02-15T11:50:23Z</time>
      </trkpt>
      <trkpt lat="43.583" lon="6.12672">
        <ele>457.24</ele>
        <time>2016-02-15T11:50:35Z</time>
      </trkpt>
      <trkpt lat="43.58297" lon="6.12656">
        <ele>454.84</ele>
        <time>2016-02-15T11:50:48Z</time>
      </trkpt>
      <trkpt lat="43.58297" lon="6.12638">
        <ele>456.76</ele>
        <time>2016-02-15T11:50:59Z</time>
      </trkpt>
      <trkpt lat="43.58297" lon="6.12616">
        <ele>457.24</ele>
        <time>2016-02-15T11:51:13Z</time>
      </trkpt>
      <trkpt lat="43.58297" lon="6.12615">
        <ele>457.24</ele>
        <time>2016-02-15T11:51:15Z</time>
      </trkpt>
      <trkpt lat="43.58304" lon="6.12601">
        <ele>458.21</ele>
        <time>2016-02-15T11:51:26Z</time>
      </trkpt>
      <trkpt lat="43.58313" lon="6.1258">
        <ele>461.57</ele>
        <time>2016-02-15T11:51:40Z</time>
      </trkpt>
      <trkpt lat="43.58317" lon="6.12572">
        <ele>462.53</ele>
        <time>2016-02-15T11:51:48Z</time>
      </trkpt>
      <trkpt lat="43.58326" lon="6.12558">
        <ele>462.05</ele>
        <time>2016-02-15T11:52:02Z</time>
      </trkpt>
      <trkpt lat="43.58333" lon="6.1255">
        <ele>461.57</ele>
        <time>2016-02-15T11:52:11Z</time>
      </trkpt>
      <trkpt lat="43.58338" lon="6.12533">
        <ele>462.53</ele>
        <time>2016-02-15T11:52:27Z</time>
      </trkpt>
      <trkpt lat="43.58339" lon="6.12528">
        <ele>463.49</ele>
        <time>2016-02-15T11:52:30Z</time>
      </trkpt>
      <trkpt lat="43.58346" lon="6.12508">
        <ele>465.9</ele>
        <time>2016-02-15T11:52:44Z</time>
      </trkpt>
      <trkpt lat="43.58353" lon="6.12494">
        <ele>467.34</ele>
        <time>2016-02-15T11:52:56Z</time>
      </trkpt>
      <trkpt lat="43.5836" lon="6.12474">
        <ele>466.38</ele>
        <time>2016-02-15T11:53:09Z</time>
      </trkpt>
      <trkpt lat="43.58362" lon="6.12465">
        <ele>465.9</ele>
        <time>2016-02-15T11:53:17Z</time>
      </trkpt>
      <trkpt lat="43.58365" lon="6.12454">
        <ele>465.9</ele>
        <time>2016-02-15T11:53:23Z</time>
      </trkpt>
      <trkpt lat="43.58372" lon="6.12438">
        <ele>465.42</ele>
        <time>2016-02-15T11:53:38Z</time>
      </trkpt>
      <trkpt lat="43.58376" lon="6.12429">
        <ele>465.9</ele>
        <time>2016-02-15T11:53:49Z</time>
      </trkpt>
      <trkpt lat="43.58387" lon="6.12405">
        <ele>467.34</ele>
        <time>2016-02-15T11:54:05Z</time>
      </trkpt>
      <trkpt lat="43.58394" lon="6.12391">
        <ele>468.3</ele>
        <time>2016-02-15T11:54:19Z</time>
      </trkpt>
      <trkpt lat="43.58397" lon="6.12381">
        <ele>469.74</ele>
        <time>2016-02-15T11:54:27Z</time>
      </trkpt>
      <trkpt lat="43.584" lon="6.12366">
        <ele>470.22</ele>
        <time>2016-02-15T11:54:40Z</time>
      </trkpt>
      <trkpt lat="43.58405" lon="6.12345">
        <ele>470.7</ele>
        <time>2016-02-15T11:54:55Z</time>
      </trkpt>
      <trkpt lat="43.58407" lon="6.12337">
        <ele>470.7</ele>
        <time>2016-02-15T11:55:01Z</time>
      </trkpt>
      <trkpt lat="43.58408" lon="6.12329">
        <ele>471.18</ele>
        <time>2016-02-15T11:55:07Z</time>
      </trkpt>
      <trkpt lat="43.5841" lon="6.12321">
        <ele>473.11</ele>
        <time>2016-02-15T11:55:14Z</time>
      </trkpt>
      <trkpt lat="43.58423" lon="6.12298">
        <ele>475.03</ele>
        <time>2016-02-15T11:55:28Z</time>
      </trkpt>
      <trkpt lat="43.58431" lon="6.12282">
        <ele>473.59</ele>
        <time>2016-02-15T11:55:42Z</time>
      </trkpt>
      <trkpt lat="43.58432" lon="6.1228">
        <ele>473.11</ele>
        <time>2016-02-15T11:55:44Z</time>
      </trkpt>
      <trkpt lat="43.58438" lon="6.12262">
        <ele>474.07</ele>
        <time>2016-02-15T11:55:59Z</time>
      </trkpt>
      <trkpt lat="43.58448" lon="6.12242">
        <ele>474.07</ele>
        <time>2016-02-15T11:56:14Z</time>
      </trkpt>
      <trkpt lat="43.58447" lon="6.12236">
        <ele>474.07</ele>
        <time>2016-02-15T11:56:19Z</time>
      </trkpt>
      <trkpt lat="43.58448" lon="6.1222">
        <ele>474.55</ele>
        <time>2016-02-15T11:56:29Z</time>
      </trkpt>
      <trkpt lat="43.5845" lon="6.1221">
        <ele>475.03</ele>
        <time>2016-02-15T11:56:35Z</time>
      </trkpt>
      <trkpt lat="43.5845" lon="6.12197">
        <ele>474.55</ele>
        <time>2016-02-15T11:56:49Z</time>
      </trkpt>
      <trkpt lat="43.58453" lon="6.12191">
        <ele>473.59</ele>
        <time>2016-02-15T11:57:06Z</time>
      </trkpt>
      <trkpt lat="43.58455" lon="6.12174">
        <ele>472.14</ele>
        <time>2016-02-15T11:57:21Z</time>
      </trkpt>
      <trkpt lat="43.58456" lon="6.12156">
        <ele>469.74</ele>
        <time>2016-02-15T11:57:39Z</time>
      </trkpt>
      <trkpt lat="43.58454" lon="6.12143">
        <ele>470.22</ele>
        <time>2016-02-15T11:57:51Z</time>
      </trkpt>
      <trkpt lat="43.58453" lon="6.12137">
        <ele>469.26</ele>
        <time>2016-02-15T11:58:09Z</time>
      </trkpt>
      <trkpt lat="43.5846" lon="6.12123">
        <ele>466.38</ele>
        <time>2016-02-15T11:58:23Z</time>
      </trkpt>
      <trkpt lat="43.58458" lon="6.12112">
        <ele>465.42</ele>
        <time>2016-02-15T11:58:34Z</time>
      </trkpt>
      <trkpt lat="43.58455" lon="6.12111">
        <ele>464.93</ele>
        <time>2016-02-15T11:58:37Z</time>
      </trkpt>
      <trkpt lat="43.58447" lon="6.12103">
        <ele>463.49</ele>
        <time>2016-02-15T11:58:45Z</time>
      </trkpt>
      <trkpt lat="43.58448" lon="6.12083">
        <ele>463.49</ele>
        <time>2016-02-15T11:58:59Z</time>
      </trkpt>
      <trkpt lat="43.58447" lon="6.12073">
        <ele>463.49</ele>
        <time>2016-02-15T11:59:08Z</time>
      </trkpt>
      <trkpt lat="43.58449" lon="6.12058">
        <ele>464.45</ele>
        <time>2016-02-15T11:59:26Z</time>
      </trkpt>
      <trkpt lat="43.58449" lon="6.12058">
        <ele>464.45</ele>
        <time>2016-02-15T11:59:27Z</time>
      </trkpt>
      <trkpt lat="43.5845" lon="6.12049">
        <ele>466.86</ele>
        <time>2016-02-15T11:59:32Z</time>
      </trkpt>
      <trkpt lat="43.58455" lon="6.12026">
        <ele>468.3</ele>
        <time>2016-02-15T11:59:45Z</time>
      </trkpt>
      <trkpt lat="43.58458" lon="6.12006">
        <ele>468.3</ele>
        <time>2016-02-15T11:59:59Z</time>
      </trkpt>
      <trkpt lat="43.5846" lon="6.11992">
        <ele>468.78</ele>
        <time>2016-02-15T12:00:07Z</time>
      </trkpt>
      <trkpt lat="43.58463" lon="6.11988">
        <ele>467.82</ele>
        <time>2016-02-15T12:00:10Z</time>
      </trkpt>
      <trkpt lat="43.58471" lon="6.11977">
        <ele>467.82</ele>
        <time>2016-02-15T12:00:21Z</time>
      </trkpt>
      <trkpt lat="43.58475" lon="6.11958">
        <ele>470.22</ele>
        <time>2016-02-15T12:00:37Z</time>
      </trkpt>
      <trkpt lat="43.58477" lon="6.11948">
        <ele>471.66</ele>
        <time>2016-02-15T12:00:46Z</time>
      </trkpt>
      <trkpt lat="43.58479" lon="6.11925">
        <ele>470.7</ele>
        <time>2016-02-15T12:01:00Z</time>
      </trkpt>
      <trkpt lat="43.58481" lon="6.11912">
        <ele>471.18</ele>
        <time>2016-02-15T12:01:14Z</time>
      </trkpt>
      <trkpt lat="43.58484" lon="6.11893">
        <ele>472.14</ele>
        <time>2016-02-15T12:01:29Z</time>
      </trkpt>
      <trkpt lat="43.58485" lon="6.11874">
        <ele>473.59</ele>
        <time>2016-02-15T12:01:43Z</time>
      </trkpt>
      <trkpt lat="43.58488" lon="6.11847">
        <ele>475.03</ele>
        <time>2016-02-15T12:02:00Z</time>
      </trkpt>
      <trkpt lat="43.58491" lon="6.11833">
        <ele>475.51</ele>
        <time>2016-02-15T12:02:10Z</time>
      </trkpt>
      <trkpt lat="43.58493" lon="6.11822">
        <ele>476.47</ele>
        <time>2016-02-15T12:02:19Z</time>
      </trkpt>
      <trkpt lat="43.585" lon="6.11811">
        <ele>475.51</ele>
        <time>2016-02-15T12:02:29Z</time>
      </trkpt>
      <trkpt lat="43.58505" lon="6.11794">
        <ele>474.55</ele>
        <time>2016-02-15T12:02:41Z</time>
      </trkpt>
      <trkpt lat="43.5851" lon="6.11776">
        <ele>474.07</ele>
        <time>2016-02-15T12:02:54Z</time>
      </trkpt>
      <trkpt lat="43.58514" lon="6.1176">
        <ele>473.11</ele>
        <time>2016-02-15T12:03:10Z</time>
      </trkpt>
      <trkpt lat="43.58506" lon="6.11752">
        <ele>469.26</ele>
        <time>2016-02-15T12:03:21Z</time>
      </trkpt>
      <trkpt lat="43.58496" lon="6.11746">
        <ele>466.86</ele>
        <time>2016-02-15T12:03:35Z</time>
      </trkpt>
      <trkpt lat="43.58499" lon="6.11748">
        <ele>466.38</ele>
        <time>2016-02-15T12:03:38Z</time>
      </trkpt>
      <trkpt lat="43.58512" lon="6.1176">
        <ele>466.86</ele>
        <time>2016-02-15T12:03:53Z</time>
      </trkpt>
      <trkpt lat="43.58513" lon="6.11759">
        <ele>466.86</ele>
        <time>2016-02-15T12:03:55Z</time>
      </trkpt>
      <trkpt lat="43.58516" lon="6.11753">
        <ele>467.34</ele>
        <time>2016-02-15T12:04:00Z</time>
      </trkpt>
      <trkpt lat="43.58518" lon="6.11745">
        <ele>467.34</ele>
        <time>2016-02-15T12:04:13Z</time>
      </trkpt>
      <trkpt lat="43.58523" lon="6.11726">
        <ele>469.26</ele>
        <time>2016-02-15T12:04:25Z</time>
      </trkpt>
      <trkpt lat="43.58528" lon="6.11703">
        <ele>471.18</ele>
        <time>2016-02-15T12:04:40Z</time>
      </trkpt>
      <trkpt lat="43.58541" lon="6.11678">
        <ele>473.11</ele>
        <time>2016-02-15T12:04:59Z</time>
      </trkpt>
      <trkpt lat="43.58554" lon="6.11662">
        <ele>473.11</ele>
        <time>2016-02-15T12:05:14Z</time>
      </trkpt>
      <trkpt lat="43.58561" lon="6.11653">
        <ele>472.14</ele>
        <time>2016-02-15T12:05:25Z</time>
      </trkpt>
      <trkpt lat="43.58573" lon="6.11637">
        <ele>471.18</ele>
        <time>2016-02-15T12:05:40Z</time>
      </trkpt>
      <trkpt lat="43.58575" lon="6.11633">
        <ele>471.18</ele>
        <time>2016-02-15T12:05:43Z</time>
      </trkpt>
      <trkpt lat="43.58579" lon="6.11628">
        <ele>469.74</ele>
        <time>2016-02-15T12:05:57Z</time>
      </trkpt>
      <trkpt lat="43.58577" lon="6.11614">
        <ele>469.26</ele>
        <time>2016-02-15T12:06:15Z</time>
      </trkpt>
      <trkpt lat="43.58572" lon="6.1159">
        <ele>468.3</ele>
        <time>2016-02-15T12:06:31Z</time>
      </trkpt>
      <trkpt lat="43.58565" lon="6.11567">
        <ele>467.82</ele>
        <time>2016-02-15T12:06:46Z</time>
      </trkpt>
      <trkpt lat="43.5856" lon="6.11546">
        <ele>466.86</ele>
        <time>2016-02-15T12:07:02Z</time>
      </trkpt>
      <trkpt lat="43.58555" lon="6.11516">
        <ele>468.3</ele>
        <time>2016-02-15T12:07:20Z</time>
      </trkpt>
      <trkpt lat="43.58554" lon="6.11505">
        <ele>469.74</ele>
        <time>2016-02-15T12:07:28Z</time>
      </trkpt>
      <trkpt lat="43.58555" lon="6.11499">
        <ele>470.7</ele>
        <time>2016-02-15T12:07:32Z</time>
      </trkpt>
      <trkpt lat="43.58553" lon="6.11474">
        <ele>471.18</ele>
        <time>2016-02-15T12:07:47Z</time>
      </trkpt>
      <trkpt lat="43.58548" lon="6.1145">
        <ele>472.14</ele>
        <time>2016-02-15T12:08:03Z</time>
      </trkpt>
      <trkpt lat="43.58548" lon="6.11447">
        <ele>472.14</ele>
        <time>2016-02-15T12:08:05Z</time>
      </trkpt>
      <trkpt lat="43.58549" lon="6.11438">
        <ele>472.14</ele>
        <time>2016-02-15T12:08:11Z</time>
      </trkpt>
      <trkpt lat="43.58549" lon="6.11418">
        <ele>471.66</ele>
        <time>2016-02-15T12:08:26Z</time>
      </trkpt>
      <trkpt lat="43.58548" lon="6.11396">
        <ele>472.63</ele>
        <time>2016-02-15T12:08:42Z</time>
      </trkpt>
      <trkpt lat="43.58547" lon="6.11375">
        <ele>471.18</ele>
        <time>2016-02-15T12:08:55Z</time>
      </trkpt>
      <trkpt lat="43.58545" lon="6.11368">
        <ele>470.7</ele>
        <time>2016-02-15T12:09:00Z</time>
      </trkpt>
      <trkpt lat="43.58541" lon="6.11363">
        <ele>470.22</ele>
        <time>2016-02-15T12:09:04Z</time>
      </trkpt>
      <trkpt lat="43.58535" lon="6.11346">
        <ele>468.3</ele>
        <time>2016-02-15T12:09:19Z</time>
      </trkpt>
      <trkpt lat="43.58519" lon="6.11329">
        <ele>468.3</ele>
        <time>2016-02-15T12:09:37Z</time>
      </trkpt>
      <trkpt lat="43.58502" lon="6.11315">
        <ele>467.34</ele>
        <time>2016-02-15T12:09:54Z</time>
      </trkpt>
      <trkpt lat="43.58489" lon="6.11303">
        <ele>468.78</ele>
        <time>2016-02-15T12:10:09Z</time>
      </trkpt>
      <trkpt lat="43.58486" lon="6.113">
        <ele>470.7</ele>
        <time>2016-02-15T12:10:18Z</time>
      </trkpt>
      <trkpt lat="43.58481" lon="6.11287">
        <ele>470.7</ele>
        <time>2016-02-15T12:10:34Z</time>
      </trkpt>
      <trkpt lat="43.58481" lon="6.11273">
        <ele>470.7</ele>
        <time>2016-02-15T12:10:47Z</time>
      </trkpt>
      <trkpt lat="43.58477" lon="6.11253">
        <ele>470.7</ele>
        <time>2016-02-15T12:11:03Z</time>
      </trkpt>
      <trkpt lat="43.58473" lon="6.11233">
        <ele>472.14</ele>
        <time>2016-02-15T12:11:19Z</time>
      </trkpt>
      <trkpt lat="43.58471" lon="6.11214">
        <ele>470.7</ele>
        <time>2016-02-15T12:11:34Z</time>
      </trkpt>
      <trkpt lat="43.58469" lon="6.11197">
        <ele>471.18</ele>
        <time>2016-02-15T12:11:49Z</time>
      </trkpt>
      <trkpt lat="43.58467" lon="6.11176">
        <ele>472.63</ele>
        <time>2016-02-15T12:12:04Z</time>
      </trkpt>
      <trkpt lat="43.58462" lon="6.1116">
        <ele>474.07</ele>
        <time>2016-02-15T12:12:20Z</time>
      </trkpt>
      <trkpt lat="43.58464" lon="6.11141">
        <ele>473.59</ele>
        <time>2016-02-15T12:12:36Z</time>
      </trkpt>
      <trkpt lat="43.58463" lon="6.11123">
        <ele>473.59</ele>
        <time>2016-02-15T12:12:49Z</time>
      </trkpt>
      <trkpt lat="43.58461" lon="6.11107">
        <ele>475.51</ele>
        <time>2016-02-15T12:13:03Z</time>
      </trkpt>
      <trkpt lat="43.58461" lon="6.11092">
        <ele>475.03</ele>
        <time>2016-02-15T12:13:18Z</time>
      </trkpt>
      <trkpt lat="43.5846" lon="6.1107">
        <ele>477.91</ele>
        <time>2016-02-15T12:13:33Z</time>
      </trkpt>
      <trkpt lat="43.5846" lon="6.11052">
        <ele>479.84</ele>
        <time>2016-02-15T12:13:47Z</time>
      </trkpt>
      <trkpt lat="43.58454" lon="6.11027">
        <ele>482.72</ele>
        <time>2016-02-15T12:14:06Z</time>
      </trkpt>
      <trkpt lat="43.58444" lon="6.11007">
        <ele>479.84</ele>
        <time>2016-02-15T12:14:24Z</time>
      </trkpt>
      <trkpt lat="43.58434" lon="6.10985">
        <ele>481.76</ele>
        <time>2016-02-15T12:14:42Z</time>
      </trkpt>
      <trkpt lat="43.58428" lon="6.1097">
        <ele>482.72</ele>
        <time>2016-02-15T12:14:58Z</time>
      </trkpt>
      <trkpt lat="43.58424" lon="6.10955">
        <ele>482.72</ele>
        <time>2016-02-15T12:15:15Z</time>
      </trkpt>
      <trkpt lat="43.58425" lon="6.10943">
        <ele>484.64</ele>
        <time>2016-02-15T12:15:29Z</time>
      </trkpt>
      <trkpt lat="43.58427" lon="6.10934">
        <ele>486.08</ele>
        <time>2016-02-15T12:15:41Z</time>
      </trkpt>
      <trkpt lat="43.58427" lon="6.10916">
        <ele>487.53</ele>
        <time>2016-02-15T12:15:55Z</time>
      </trkpt>
      <trkpt lat="43.58426" lon="6.10915">
        <ele>488.01</ele>
        <time>2016-02-15T12:15:58Z</time>
      </trkpt>
      <trkpt lat="43.58425" lon="6.10909">
        <ele>488.97</ele>
        <time>2016-02-15T12:16:02Z</time>
      </trkpt>
      <trkpt lat="43.58427" lon="6.10887">
        <ele>491.85</ele>
        <time>2016-02-15T12:16:17Z</time>
      </trkpt>
      <trkpt lat="43.58427" lon="6.10886">
        <ele>492.33</ele>
        <time>2016-02-15T12:16:18Z</time>
      </trkpt>
      <trkpt lat="43.58427" lon="6.1088">
        <ele>494.26</ele>
        <time>2016-02-15T12:16:22Z</time>
      </trkpt>
      <trkpt lat="43.58428" lon="6.10876">
        <ele>494.74</ele>
        <time>2016-02-15T12:16:25Z</time>
      </trkpt>
      <trkpt lat="43.58428" lon="6.10869">
        <ele>496.18</ele>
        <time>2016-02-15T12:16:29Z</time>
      </trkpt>
      <trkpt lat="43.58429" lon="6.10856">
        <ele>498.1</ele>
        <time>2016-02-15T12:16:39Z</time>
      </trkpt>
      <trkpt lat="43.58429" lon="6.1084">
        <ele>500.02</ele>
        <time>2016-02-15T12:16:51Z</time>
      </trkpt>
      <trkpt lat="43.58428" lon="6.10834">
        <ele>500.98</ele>
        <time>2016-02-15T12:16:56Z</time>
      </trkpt>
      <trkpt lat="43.58429" lon="6.10828">
        <ele>501.95</ele>
        <time>2016-02-15T12:17:01Z</time>
      </trkpt>
      <trkpt lat="43.58433" lon="6.10811">
        <ele>504.83</ele>
        <time>2016-02-15T12:17:16Z</time>
      </trkpt>
      <trkpt lat="43.58432" lon="6.10805">
        <ele>505.79</ele>
        <time>2016-02-15T12:17:21Z</time>
      </trkpt>
      <trkpt lat="43.58431" lon="6.10785">
        <ele>508.19</ele>
        <time>2016-02-15T12:17:35Z</time>
      </trkpt>
      <trkpt lat="43.58433" lon="6.1076">
        <ele>508.67</ele>
        <time>2016-02-15T12:17:48Z</time>
      </trkpt>
      <trkpt lat="43.58437" lon="6.10742">
        <ele>508.67</ele>
        <time>2016-02-15T12:18:02Z</time>
      </trkpt>
      <trkpt lat="43.5844" lon="6.10729">
        <ele>509.64</ele>
        <time>2016-02-15T12:18:12Z</time>
      </trkpt>
      <trkpt lat="43.58442" lon="6.10723">
        <ele>509.64</ele>
        <time>2016-02-15T12:18:17Z</time>
      </trkpt>
      <trkpt lat="43.58445" lon="6.10709">
        <ele>511.56</ele>
        <time>2016-02-15T12:18:27Z</time>
      </trkpt>
      <trkpt lat="43.5845" lon="6.10688">
        <ele>511.56</ele>
        <time>2016-02-15T12:18:40Z</time>
      </trkpt>
      <trkpt lat="43.5845" lon="6.10686">
        <ele>511.56</ele>
        <time>2016-02-15T12:18:42Z</time>
      </trkpt>
      <trkpt lat="43.58449" lon="6.10667">
        <ele>513.48</ele>
        <time>2016-02-15T12:18:54Z</time>
      </trkpt>
      <trkpt lat="43.5845" lon="6.10644">
        <ele>511.08</ele>
        <time>2016-02-15T12:19:06Z</time>
      </trkpt>
      <trkpt lat="43.58447" lon="6.10624">
        <ele>509.64</ele>
        <time>2016-02-15T12:19:19Z</time>
      </trkpt>
      <trkpt lat="43.58446" lon="6.10607">
        <ele>508.19</ele>
        <time>2016-02-15T12:19:30Z</time>
      </trkpt>
      <trkpt lat="43.58449" lon="6.10594">
        <ele>506.27</ele>
        <time>2016-02-15T12:19:40Z</time>
      </trkpt>
      <trkpt lat="43.58453" lon="6.10578">
        <ele>505.79</ele>
        <time>2016-02-15T12:19:52Z</time>
      </trkpt>
      <trkpt lat="43.58458" lon="6.10561">
        <ele>505.31</ele>
        <time>2016-02-15T12:20:03Z</time>
      </trkpt>
      <trkpt lat="43.58458" lon="6.10559">
        <ele>504.83</ele>
        <time>2016-02-15T12:20:05Z</time>
      </trkpt>
      <trkpt lat="43.58463" lon="6.10548">
        <ele>505.79</ele>
        <time>2016-02-15T12:20:13Z</time>
      </trkpt>
      <trkpt lat="43.5847" lon="6.10541">
        <ele>505.79</ele>
        <time>2016-02-15T12:20:24Z</time>
      </trkpt>
      <trkpt lat="43.58477" lon="6.10527">
        <ele>507.23</ele>
        <time>2016-02-15T12:20:34Z</time>
      </trkpt>
      <trkpt lat="43.58477" lon="6.10526">
        <ele>507.23</ele>
        <time>2016-02-15T12:20:35Z</time>
      </trkpt>
      <trkpt lat="43.58488" lon="6.10512">
        <ele>509.16</ele>
        <time>2016-02-15T12:20:48Z</time>
      </trkpt>
      <trkpt lat="43.58492" lon="6.10508">
        <ele>509.16</ele>
        <time>2016-02-15T12:20:52Z</time>
      </trkpt>
      <trkpt lat="43.58499" lon="6.10494">
        <ele>510.6</ele>
        <time>2016-02-15T12:21:04Z</time>
      </trkpt>
      <trkpt lat="43.58503" lon="6.10484">
        <ele>511.56</ele>
        <time>2016-02-15T12:21:13Z</time>
      </trkpt>
      <trkpt lat="43.58504" lon="6.10468">
        <ele>513</ele>
        <time>2016-02-15T12:21:25Z</time>
      </trkpt>
      <trkpt lat="43.58505" lon="6.10465">
        <ele>513</ele>
        <time>2016-02-15T12:21:27Z</time>
      </trkpt>
      <trkpt lat="43.58506" lon="6.10459">
        <ele>512.52</ele>
        <time>2016-02-15T12:21:31Z</time>
      </trkpt>
      <trkpt lat="43.58507" lon="6.10441">
        <ele>513.48</ele>
        <time>2016-02-15T12:21:43Z</time>
      </trkpt>
      <trkpt lat="43.58507" lon="6.10439">
        <ele>513.48</ele>
        <time>2016-02-15T12:21:44Z</time>
      </trkpt>
      <trkpt lat="43.58503" lon="6.10419">
        <ele>513</ele>
        <time>2016-02-15T12:21:57Z</time>
      </trkpt>
      <trkpt lat="43.58503" lon="6.10418">
        <ele>513</ele>
        <time>2016-02-15T12:21:58Z</time>
      </trkpt>
      <trkpt lat="43.58501" lon="6.10399">
        <ele>511.56</ele>
        <time>2016-02-15T12:22:10Z</time>
      </trkpt>
      <trkpt lat="43.58504" lon="6.10383">
        <ele>509.16</ele>
        <time>2016-02-15T12:22:21Z</time>
      </trkpt>
      <trkpt lat="43.5851" lon="6.10369">
        <ele>507.71</ele>
        <time>2016-02-15T12:22:32Z</time>
      </trkpt>
      <trkpt lat="43.58511" lon="6.10365">
        <ele>507.71</ele>
        <time>2016-02-15T12:22:44Z</time>
      </trkpt>
      <trkpt lat="43.58513" lon="6.10364">
        <ele>507.23</ele>
        <time>2016-02-15T12:22:56Z</time>
      </trkpt>
      <trkpt lat="43.58502" lon="6.10349">
        <ele>505.31</ele>
        <time>2016-02-15T12:23:10Z</time>
      </trkpt>
      <trkpt lat="43.58501" lon="6.10348">
        <ele>505.31</ele>
        <time>2016-02-15T12:23:12Z</time>
      </trkpt>
      <trkpt lat="43.58503" lon="6.10341">
        <ele>503.87</ele>
        <time>2016-02-15T12:23:21Z</time>
      </trkpt>
      <trkpt lat="43.58503" lon="6.1034">
        <ele>503.87</ele>
        <time>2016-02-15T12:23:44Z</time>
      </trkpt>
    </trkseg>
  </trk>
</gpx>